<?xml version="1.0" encoding="UTF-8" standalone="no" ?>
<gpx xmlns="http://www.topografix.com/GPX/1/1" xmlns:xsi="http://www.w3.org/2001/XMLSchema-instance" xsi:schemaLocation="http://www.topografix.com/GPX/1/1 http://www.topografix.com/GPX/1/1/gpx.xsd" version="1.1" creator="VisuGPX - https://www.visugpx.com">
  <metadata>
    <name>Le Malmont 10km 350m</name>
    <desc><![CDATA[Une petite boucle au dessus de Draguignan - Le Malmont]]></desc>
  </metadata>
  <trk>
    <name><![CDATA[Le Malmont 10km 400m]]></name>
    <extensions>
      <line xmlns="http://www.topografix.com/GPX/gpx_style/0/2">
        <color>0000FF</color>
        <width>4</width>
      </line>
    </extensions>
    <trkseg>
      <trkpt lat="43.55687" lon="6.46587">
        <ele>505.9</ele>
        <time>2021-11-26T09:02:40Z</time>
      </trkpt>
      <trkpt lat="43.55678" lon="6.46582">
        <ele>505.4</ele>
        <time>2021-11-26T09:02:50Z</time>
      </trkpt>
      <trkpt lat="43.55668" lon="6.46577">
        <ele>505.3</ele>
        <time>2021-11-26T09:02:59Z</time>
      </trkpt>
      <trkpt lat="43.55659" lon="6.46577">
        <ele>505.1</ele>
        <time>2021-11-26T09:03:07Z</time>
      </trkpt>
      <trkpt lat="43.55649" lon="6.46575">
        <ele>504.9</ele>
        <time>2021-11-26T09:03:15Z</time>
      </trkpt>
      <trkpt lat="43.5564" lon="6.4657">
        <ele>504.6</ele>
        <time>2021-11-26T09:03:25Z</time>
      </trkpt>
      <trkpt lat="43.55629" lon="6.46564">
        <ele>503.4</ele>
        <time>2021-11-26T09:03:36Z</time>
      </trkpt>
      <trkpt lat="43.55616" lon="6.4656">
        <ele>502</ele>
        <time>2021-11-26T09:03:46Z</time>
      </trkpt>
      <trkpt lat="43.55605" lon="6.46556">
        <ele>500.9</ele>
        <time>2021-11-26T09:03:57Z</time>
      </trkpt>
      <trkpt lat="43.55594" lon="6.46559">
        <ele>500.8</ele>
        <time>2021-11-26T09:04:12Z</time>
      </trkpt>
      <trkpt lat="43.55585" lon="6.46559">
        <ele>500.5</ele>
        <time>2021-11-26T09:04:24Z</time>
      </trkpt>
      <trkpt lat="43.55575" lon="6.46555">
        <ele>499.9</ele>
        <time>2021-11-26T09:04:35Z</time>
      </trkpt>
      <trkpt lat="43.55563" lon="6.46552">
        <ele>499.1</ele>
        <time>2021-11-26T09:04:48Z</time>
      </trkpt>
      <trkpt lat="43.55551" lon="6.46547">
        <ele>497.9</ele>
        <time>2021-11-26T09:05:02Z</time>
      </trkpt>
      <trkpt lat="43.55537" lon="6.46546">
        <ele>497.3</ele>
        <time>2021-11-26T09:05:14Z</time>
      </trkpt>
      <trkpt lat="43.55527" lon="6.46548">
        <ele>497.8</ele>
        <time>2021-11-26T09:05:27Z</time>
      </trkpt>
      <trkpt lat="43.55514" lon="6.46548">
        <ele>498.1</ele>
        <time>2021-11-26T09:05:41Z</time>
      </trkpt>
      <trkpt lat="43.55505" lon="6.46552">
        <ele>499.1</ele>
        <time>2021-11-26T09:05:52Z</time>
      </trkpt>
      <trkpt lat="43.55495" lon="6.4655">
        <ele>498.6</ele>
        <time>2021-11-26T09:06:03Z</time>
      </trkpt>
      <trkpt lat="43.55485" lon="6.46548">
        <ele>498</ele>
        <time>2021-11-26T09:06:12Z</time>
      </trkpt>
      <trkpt lat="43.55475" lon="6.46548">
        <ele>498.1</ele>
        <time>2021-11-26T09:06:21Z</time>
      </trkpt>
      <trkpt lat="43.55465" lon="6.46552">
        <ele>498.7</ele>
        <time>2021-11-26T09:06:30Z</time>
      </trkpt>
      <trkpt lat="43.55456" lon="6.46556">
        <ele>498.9</ele>
        <time>2021-11-26T09:06:38Z</time>
      </trkpt>
      <trkpt lat="43.55449" lon="6.46561">
        <ele>498.9</ele>
        <time>2021-11-26T09:06:45Z</time>
      </trkpt>
      <trkpt lat="43.55441" lon="6.46568">
        <ele>498.5</ele>
        <time>2021-11-26T09:06:54Z</time>
      </trkpt>
      <trkpt lat="43.55434" lon="6.46573">
        <ele>497.6</ele>
        <time>2021-11-26T09:07:01Z</time>
      </trkpt>
      <trkpt lat="43.55435" lon="6.46585">
        <ele>499</ele>
        <time>2021-11-26T09:07:13Z</time>
      </trkpt>
      <trkpt lat="43.55435" lon="6.46599">
        <ele>500.2</ele>
        <time>2021-11-26T09:07:25Z</time>
      </trkpt>
      <trkpt lat="43.55428" lon="6.46608">
        <ele>499.7</ele>
        <time>2021-11-26T09:07:35Z</time>
      </trkpt>
      <trkpt lat="43.5542" lon="6.46617">
        <ele>499.3</ele>
        <time>2021-11-26T09:07:47Z</time>
      </trkpt>
      <trkpt lat="43.55411" lon="6.46623">
        <ele>497</ele>
        <time>2021-11-26T09:07:58Z</time>
      </trkpt>
      <trkpt lat="43.55409" lon="6.46634">
        <ele>497.6</ele>
        <time>2021-11-26T09:08:08Z</time>
      </trkpt>
      <trkpt lat="43.55412" lon="6.46644">
        <ele>499.7</ele>
        <time>2021-11-26T09:08:25Z</time>
      </trkpt>
      <trkpt lat="43.55418" lon="6.46653">
        <ele>503.3</ele>
        <time>2021-11-26T09:08:44Z</time>
      </trkpt>
      <trkpt lat="43.55426" lon="6.46664">
        <ele>506.3</ele>
        <time>2021-11-26T09:09:06Z</time>
      </trkpt>
      <trkpt lat="43.55427" lon="6.46678">
        <ele>508.1</ele>
        <time>2021-11-26T09:09:23Z</time>
      </trkpt>
      <trkpt lat="43.5542" lon="6.46693">
        <ele>508.5</ele>
        <time>2021-11-26T09:09:34Z</time>
      </trkpt>
      <trkpt lat="43.55416" lon="6.46702">
        <ele>508.8</ele>
        <time>2021-11-26T09:09:45Z</time>
      </trkpt>
      <trkpt lat="43.55425" lon="6.46711">
        <ele>511.3</ele>
        <time>2021-11-26T09:10:04Z</time>
      </trkpt>
      <trkpt lat="43.55421" lon="6.46725">
        <ele>511.9</ele>
        <time>2021-11-26T09:10:15Z</time>
      </trkpt>
      <trkpt lat="43.55415" lon="6.46739">
        <ele>511.2</ele>
        <time>2021-11-26T09:10:26Z</time>
      </trkpt>
      <trkpt lat="43.55409" lon="6.4675">
        <ele>510.4</ele>
        <time>2021-11-26T09:10:36Z</time>
      </trkpt>
      <trkpt lat="43.55402" lon="6.46759">
        <ele>509.2</ele>
        <time>2021-11-26T09:10:47Z</time>
      </trkpt>
      <trkpt lat="43.55392" lon="6.46765">
        <ele>507.2</ele>
        <time>2021-11-26T09:10:59Z</time>
      </trkpt>
      <trkpt lat="43.55386" lon="6.46777">
        <ele>505.9</ele>
        <time>2021-11-26T09:11:09Z</time>
      </trkpt>
      <trkpt lat="43.55379" lon="6.46786">
        <ele>504.5</ele>
        <time>2021-11-26T09:11:20Z</time>
      </trkpt>
      <trkpt lat="43.55377" lon="6.46797">
        <ele>505</ele>
        <time>2021-11-26T09:11:29Z</time>
      </trkpt>
      <trkpt lat="43.55376" lon="6.4681">
        <ele>505.6</ele>
        <time>2021-11-26T09:11:40Z</time>
      </trkpt>
      <trkpt lat="43.55375" lon="6.46822">
        <ele>506.3</ele>
        <time>2021-11-26T09:12:22Z</time>
      </trkpt>
      <trkpt lat="43.55371" lon="6.46822">
        <ele>505</ele>
        <time>2021-11-26T09:12:49Z</time>
      </trkpt>
      <trkpt lat="43.5537" lon="6.4682">
        <ele>504.7</ele>
        <time>2021-11-26T09:13:17Z</time>
      </trkpt>
      <trkpt lat="43.55369" lon="6.46829">
        <ele>504.9</ele>
        <time>2021-11-26T09:13:37Z</time>
      </trkpt>
      <trkpt lat="43.55374" lon="6.46846">
        <ele>507.1</ele>
        <time>2021-11-26T09:13:48Z</time>
      </trkpt>
      <trkpt lat="43.55372" lon="6.46859">
        <ele>506.9</ele>
        <time>2021-11-26T09:13:58Z</time>
      </trkpt>
      <trkpt lat="43.55372" lon="6.46872">
        <ele>507.5</ele>
        <time>2021-11-26T09:14:08Z</time>
      </trkpt>
      <trkpt lat="43.55376" lon="6.46885">
        <ele>509</ele>
        <time>2021-11-26T09:14:24Z</time>
      </trkpt>
      <trkpt lat="43.55373" lon="6.46898">
        <ele>508.1</ele>
        <time>2021-11-26T09:14:36Z</time>
      </trkpt>
      <trkpt lat="43.55371" lon="6.46913">
        <ele>507.3</ele>
        <time>2021-11-26T09:14:46Z</time>
      </trkpt>
      <trkpt lat="43.55375" lon="6.46926">
        <ele>507.9</ele>
        <time>2021-11-26T09:14:58Z</time>
      </trkpt>
      <trkpt lat="43.55374" lon="6.46937">
        <ele>507.4</ele>
        <time>2021-11-26T09:15:11Z</time>
      </trkpt>
      <trkpt lat="43.55373" lon="6.46951">
        <ele>507</ele>
        <time>2021-11-26T09:15:28Z</time>
      </trkpt>
      <trkpt lat="43.55378" lon="6.46963">
        <ele>507.7</ele>
        <time>2021-11-26T09:15:41Z</time>
      </trkpt>
      <trkpt lat="43.55387" lon="6.46972">
        <ele>508.7</ele>
        <time>2021-11-26T09:15:56Z</time>
      </trkpt>
      <trkpt lat="43.55397" lon="6.46978">
        <ele>508.1</ele>
        <time>2021-11-26T09:16:08Z</time>
      </trkpt>
      <trkpt lat="43.55408" lon="6.46979">
        <ele>508</ele>
        <time>2021-11-26T09:16:18Z</time>
      </trkpt>
      <trkpt lat="43.5542" lon="6.46979">
        <ele>508</ele>
        <time>2021-11-26T09:16:33Z</time>
      </trkpt>
      <trkpt lat="43.55431" lon="6.46978">
        <ele>508.2</ele>
        <time>2021-11-26T09:16:44Z</time>
      </trkpt>
      <trkpt lat="43.55438" lon="6.46982">
        <ele>507.6</ele>
        <time>2021-11-26T09:16:57Z</time>
      </trkpt>
      <trkpt lat="43.55449" lon="6.46987">
        <ele>506.5</ele>
        <time>2021-11-26T09:17:08Z</time>
      </trkpt>
      <trkpt lat="43.55459" lon="6.46985">
        <ele>506.1</ele>
        <time>2021-11-26T09:17:18Z</time>
      </trkpt>
      <trkpt lat="43.55466" lon="6.46977">
        <ele>506.8</ele>
        <time>2021-11-26T09:17:29Z</time>
      </trkpt>
      <trkpt lat="43.55472" lon="6.46963">
        <ele>508</ele>
        <time>2021-11-26T09:17:40Z</time>
      </trkpt>
      <trkpt lat="43.55476" lon="6.46954">
        <ele>508.6</ele>
        <time>2021-11-26T09:17:51Z</time>
      </trkpt>
      <trkpt lat="43.5548" lon="6.4694">
        <ele>509.9</ele>
        <time>2021-11-26T09:18:04Z</time>
      </trkpt>
      <trkpt lat="43.55483" lon="6.46928">
        <ele>511.1</ele>
        <time>2021-11-26T09:18:17Z</time>
      </trkpt>
      <trkpt lat="43.55489" lon="6.46917">
        <ele>512.1</ele>
        <time>2021-11-26T09:18:29Z</time>
      </trkpt>
      <trkpt lat="43.55493" lon="6.46906">
        <ele>513.3</ele>
        <time>2021-11-26T09:18:41Z</time>
      </trkpt>
      <trkpt lat="43.555" lon="6.46897">
        <ele>513.8</ele>
        <time>2021-11-26T09:18:53Z</time>
      </trkpt>
      <trkpt lat="43.55507" lon="6.46888">
        <ele>513.8</ele>
        <time>2021-11-26T09:19:03Z</time>
      </trkpt>
      <trkpt lat="43.55515" lon="6.46879">
        <ele>513.3</ele>
        <time>2021-11-26T09:19:15Z</time>
      </trkpt>
      <trkpt lat="43.55522" lon="6.46871">
        <ele>512.9</ele>
        <time>2021-11-26T09:19:24Z</time>
      </trkpt>
      <trkpt lat="43.55529" lon="6.4686">
        <ele>513</ele>
        <time>2021-11-26T09:19:34Z</time>
      </trkpt>
      <trkpt lat="43.55534" lon="6.4685">
        <ele>513.5</ele>
        <time>2021-11-26T09:19:44Z</time>
      </trkpt>
      <trkpt lat="43.5554" lon="6.46839">
        <ele>513.8</ele>
        <time>2021-11-26T09:19:54Z</time>
      </trkpt>
      <trkpt lat="43.55544" lon="6.46825">
        <ele>514.4</ele>
        <time>2021-11-26T09:20:05Z</time>
      </trkpt>
      <trkpt lat="43.5555" lon="6.46812">
        <ele>514.5</ele>
        <time>2021-11-26T09:20:16Z</time>
      </trkpt>
      <trkpt lat="43.55557" lon="6.468">
        <ele>514.1</ele>
        <time>2021-11-26T09:20:26Z</time>
      </trkpt>
      <trkpt lat="43.55564" lon="6.46793">
        <ele>513.4</ele>
        <time>2021-11-26T09:20:36Z</time>
      </trkpt>
      <trkpt lat="43.5557" lon="6.46781">
        <ele>513.2</ele>
        <time>2021-11-26T09:20:46Z</time>
      </trkpt>
      <trkpt lat="43.55577" lon="6.4677">
        <ele>512.6</ele>
        <time>2021-11-26T09:20:57Z</time>
      </trkpt>
      <trkpt lat="43.55582" lon="6.46758">
        <ele>512.6</ele>
        <time>2021-11-26T09:21:07Z</time>
      </trkpt>
      <trkpt lat="43.55587" lon="6.46746">
        <ele>512.7</ele>
        <time>2021-11-26T09:21:17Z</time>
      </trkpt>
      <trkpt lat="43.55594" lon="6.46735">
        <ele>512.6</ele>
        <time>2021-11-26T09:21:27Z</time>
      </trkpt>
      <trkpt lat="43.55598" lon="6.46722">
        <ele>512.9</ele>
        <time>2021-11-26T09:21:37Z</time>
      </trkpt>
      <trkpt lat="43.55603" lon="6.4671">
        <ele>512.2</ele>
        <time>2021-11-26T09:21:46Z</time>
      </trkpt>
      <trkpt lat="43.5561" lon="6.46706">
        <ele>511.2</ele>
        <time>2021-11-26T09:22:14Z</time>
      </trkpt>
      <trkpt lat="43.55621" lon="6.46711">
        <ele>509.7</ele>
        <time>2021-11-26T09:22:30Z</time>
      </trkpt>
      <trkpt lat="43.55632" lon="6.46718">
        <ele>508.1</ele>
        <time>2021-11-26T09:22:42Z</time>
      </trkpt>
      <trkpt lat="43.5564" lon="6.46723">
        <ele>506.7</ele>
        <time>2021-11-26T09:22:55Z</time>
      </trkpt>
      <trkpt lat="43.55652" lon="6.46726">
        <ele>504.7</ele>
        <time>2021-11-26T09:23:09Z</time>
      </trkpt>
      <trkpt lat="43.55667" lon="6.46731">
        <ele>502.3</ele>
        <time>2021-11-26T09:23:23Z</time>
      </trkpt>
      <trkpt lat="43.55674" lon="6.46723">
        <ele>502.2</ele>
        <time>2021-11-26T09:23:36Z</time>
      </trkpt>
      <trkpt lat="43.55683" lon="6.46718">
        <ele>501.5</ele>
        <time>2021-11-26T09:23:52Z</time>
      </trkpt>
      <trkpt lat="43.55692" lon="6.4671">
        <ele>501.1</ele>
        <time>2021-11-26T09:24:04Z</time>
      </trkpt>
      <trkpt lat="43.55699" lon="6.46716">
        <ele>500.4</ele>
        <time>2021-11-26T09:24:23Z</time>
      </trkpt>
      <trkpt lat="43.55703" lon="6.46729">
        <ele>499.2</ele>
        <time>2021-11-26T09:24:36Z</time>
      </trkpt>
      <trkpt lat="43.55707" lon="6.46743">
        <ele>497.7</ele>
        <time>2021-11-26T09:24:50Z</time>
      </trkpt>
      <trkpt lat="43.55709" lon="6.46759">
        <ele>496</ele>
        <time>2021-11-26T09:25:03Z</time>
      </trkpt>
      <trkpt lat="43.55714" lon="6.46773">
        <ele>494.1</ele>
        <time>2021-11-26T09:25:17Z</time>
      </trkpt>
      <trkpt lat="43.55719" lon="6.46786">
        <ele>492.4</ele>
        <time>2021-11-26T09:25:33Z</time>
      </trkpt>
      <trkpt lat="43.55724" lon="6.46798">
        <ele>490.7</ele>
        <time>2021-11-26T09:25:48Z</time>
      </trkpt>
      <trkpt lat="43.5573" lon="6.46809">
        <ele>489.1</ele>
        <time>2021-11-26T09:26:01Z</time>
      </trkpt>
      <trkpt lat="43.55734" lon="6.46823">
        <ele>487.3</ele>
        <time>2021-11-26T09:26:16Z</time>
      </trkpt>
      <trkpt lat="43.55734" lon="6.46838">
        <ele>485.7</ele>
        <time>2021-11-26T09:26:29Z</time>
      </trkpt>
      <trkpt lat="43.5573" lon="6.46856">
        <ele>484</ele>
        <time>2021-11-26T09:26:42Z</time>
      </trkpt>
      <trkpt lat="43.55729" lon="6.46875">
        <ele>481.8</ele>
        <time>2021-11-26T09:26:57Z</time>
      </trkpt>
      <trkpt lat="43.55731" lon="6.46883">
        <ele>480.7</ele>
        <time>2021-11-26T09:27:13Z</time>
      </trkpt>
      <trkpt lat="43.55746" lon="6.46883">
        <ele>479.3</ele>
        <time>2021-11-26T09:27:29Z</time>
      </trkpt>
      <trkpt lat="43.55759" lon="6.4688">
        <ele>478.7</ele>
        <time>2021-11-26T09:27:44Z</time>
      </trkpt>
      <trkpt lat="43.55769" lon="6.46884">
        <ele>477.3</ele>
        <time>2021-11-26T09:27:56Z</time>
      </trkpt>
      <trkpt lat="43.55777" lon="6.46892">
        <ele>475.8</ele>
        <time>2021-11-26T09:28:13Z</time>
      </trkpt>
      <trkpt lat="43.55787" lon="6.46897">
        <ele>474.4</ele>
        <time>2021-11-26T09:28:31Z</time>
      </trkpt>
      <trkpt lat="43.55797" lon="6.46901">
        <ele>473.3</ele>
        <time>2021-11-26T09:28:47Z</time>
      </trkpt>
      <trkpt lat="43.55807" lon="6.46901">
        <ele>472.3</ele>
        <time>2021-11-26T09:29:03Z</time>
      </trkpt>
      <trkpt lat="43.55818" lon="6.46904">
        <ele>469.7</ele>
        <time>2021-11-26T09:29:18Z</time>
      </trkpt>
      <trkpt lat="43.55831" lon="6.46902">
        <ele>467.2</ele>
        <time>2021-11-26T09:29:34Z</time>
      </trkpt>
      <trkpt lat="43.55841" lon="6.46899">
        <ele>465.6</ele>
        <time>2021-11-26T09:29:46Z</time>
      </trkpt>
      <trkpt lat="43.55852" lon="6.46889">
        <ele>464.9</ele>
        <time>2021-11-26T09:29:58Z</time>
      </trkpt>
      <trkpt lat="43.55864" lon="6.4688">
        <ele>464.8</ele>
        <time>2021-11-26T09:30:10Z</time>
      </trkpt>
      <trkpt lat="43.55872" lon="6.46886">
        <ele>463.1</ele>
        <time>2021-11-26T09:30:23Z</time>
      </trkpt>
      <trkpt lat="43.55883" lon="6.46897">
        <ele>461.5</ele>
        <time>2021-11-26T09:30:34Z</time>
      </trkpt>
      <trkpt lat="43.55883" lon="6.46908">
        <ele>460.4</ele>
        <time>2021-11-26T09:30:46Z</time>
      </trkpt>
      <trkpt lat="43.55875" lon="6.46917">
        <ele>459.1</ele>
        <time>2021-11-26T09:30:59Z</time>
      </trkpt>
      <trkpt lat="43.55864" lon="6.46924">
        <ele>458.4</ele>
        <time>2021-11-26T09:31:12Z</time>
      </trkpt>
      <trkpt lat="43.55857" lon="6.4694">
        <ele>458.4</ele>
        <time>2021-11-26T09:31:24Z</time>
      </trkpt>
      <trkpt lat="43.55854" lon="6.46955">
        <ele>458.6</ele>
        <time>2021-11-26T09:31:34Z</time>
      </trkpt>
      <trkpt lat="43.55846" lon="6.46968">
        <ele>457.6</ele>
        <time>2021-11-26T09:31:44Z</time>
      </trkpt>
      <trkpt lat="43.5584" lon="6.4698">
        <ele>456.4</ele>
        <time>2021-11-26T09:31:54Z</time>
      </trkpt>
      <trkpt lat="43.55833" lon="6.46989">
        <ele>455</ele>
        <time>2021-11-26T09:32:04Z</time>
      </trkpt>
      <trkpt lat="43.55828" lon="6.47003">
        <ele>455.2</ele>
        <time>2021-11-26T09:32:14Z</time>
      </trkpt>
      <trkpt lat="43.55821" lon="6.47015">
        <ele>455.1</ele>
        <time>2021-11-26T09:32:23Z</time>
      </trkpt>
      <trkpt lat="43.55808" lon="6.47023">
        <ele>452.8</ele>
        <time>2021-11-26T09:32:33Z</time>
      </trkpt>
      <trkpt lat="43.55796" lon="6.47025">
        <ele>451.7</ele>
        <time>2021-11-26T09:32:43Z</time>
      </trkpt>
      <trkpt lat="43.55785" lon="6.47028">
        <ele>450.6</ele>
        <time>2021-11-26T09:32:52Z</time>
      </trkpt>
      <trkpt lat="43.55777" lon="6.47037">
        <ele>450.8</ele>
        <time>2021-11-26T09:33:01Z</time>
      </trkpt>
      <trkpt lat="43.5577" lon="6.47051">
        <ele>451.5</ele>
        <time>2021-11-26T09:33:11Z</time>
      </trkpt>
      <trkpt lat="43.55763" lon="6.47061">
        <ele>450.9</ele>
        <time>2021-11-26T09:33:22Z</time>
      </trkpt>
      <trkpt lat="43.55754" lon="6.47073">
        <ele>448.9</ele>
        <time>2021-11-26T09:33:31Z</time>
      </trkpt>
      <trkpt lat="43.55747" lon="6.47085">
        <ele>447.5</ele>
        <time>2021-11-26T09:33:41Z</time>
      </trkpt>
      <trkpt lat="43.55741" lon="6.47097">
        <ele>448.2</ele>
        <time>2021-11-26T09:33:50Z</time>
      </trkpt>
      <trkpt lat="43.55734" lon="6.4711">
        <ele>447.3</ele>
        <time>2021-11-26T09:34:01Z</time>
      </trkpt>
      <trkpt lat="43.55728" lon="6.4712">
        <ele>446.3</ele>
        <time>2021-11-26T09:34:30Z</time>
      </trkpt>
      <trkpt lat="43.55727" lon="6.47127">
        <ele>445.8</ele>
        <time>2021-11-26T09:35:04Z</time>
      </trkpt>
      <trkpt lat="43.55724" lon="6.47144">
        <ele>444.4</ele>
        <time>2021-11-26T09:35:15Z</time>
      </trkpt>
      <trkpt lat="43.55724" lon="6.47158">
        <ele>443.8</ele>
        <time>2021-11-26T09:35:24Z</time>
      </trkpt>
      <trkpt lat="43.55723" lon="6.47171">
        <ele>443.1</ele>
        <time>2021-11-26T09:35:33Z</time>
      </trkpt>
      <trkpt lat="43.55721" lon="6.47187">
        <ele>442.2</ele>
        <time>2021-11-26T09:35:45Z</time>
      </trkpt>
      <trkpt lat="43.55708" lon="6.47211">
        <ele>440.9</ele>
        <time>2021-11-26T09:36:01Z</time>
      </trkpt>
      <trkpt lat="43.55699" lon="6.47229">
        <ele>439.5</ele>
        <time>2021-11-26T09:36:13Z</time>
      </trkpt>
      <trkpt lat="43.55686" lon="6.4725">
        <ele>437.8</ele>
        <time>2021-11-26T09:36:29Z</time>
      </trkpt>
      <trkpt lat="43.55679" lon="6.47261">
        <ele>436.8</ele>
        <time>2021-11-26T09:36:40Z</time>
      </trkpt>
      <trkpt lat="43.55673" lon="6.47278">
        <ele>435.6</ele>
        <time>2021-11-26T09:36:52Z</time>
      </trkpt>
      <trkpt lat="43.55667" lon="6.47293">
        <ele>435.1</ele>
        <time>2021-11-26T09:37:03Z</time>
      </trkpt>
      <trkpt lat="43.5566" lon="6.47307">
        <ele>435.4</ele>
        <time>2021-11-26T09:37:12Z</time>
      </trkpt>
      <trkpt lat="43.55655" lon="6.47317">
        <ele>434.9</ele>
        <time>2021-11-26T09:37:22Z</time>
      </trkpt>
      <trkpt lat="43.55646" lon="6.47334">
        <ele>432.8</ele>
        <time>2021-11-26T09:37:36Z</time>
      </trkpt>
      <trkpt lat="43.55638" lon="6.47349">
        <ele>431.6</ele>
        <time>2021-11-26T09:37:47Z</time>
      </trkpt>
      <trkpt lat="43.55632" lon="6.4736">
        <ele>431.7</ele>
        <time>2021-11-26T09:37:57Z</time>
      </trkpt>
      <trkpt lat="43.55627" lon="6.47376">
        <ele>430.6</ele>
        <time>2021-11-26T09:38:09Z</time>
      </trkpt>
      <trkpt lat="43.55617" lon="6.47389">
        <ele>428.1</ele>
        <time>2021-11-26T09:38:24Z</time>
      </trkpt>
      <trkpt lat="43.55607" lon="6.47396">
        <ele>427.3</ele>
        <time>2021-11-26T09:38:36Z</time>
      </trkpt>
      <trkpt lat="43.55596" lon="6.47402">
        <ele>426.6</ele>
        <time>2021-11-26T09:38:49Z</time>
      </trkpt>
      <trkpt lat="43.55586" lon="6.47402">
        <ele>425.8</ele>
        <time>2021-11-26T09:39:00Z</time>
      </trkpt>
      <trkpt lat="43.55569" lon="6.47418">
        <ele>424.6</ele>
        <time>2021-11-26T09:39:17Z</time>
      </trkpt>
      <trkpt lat="43.55552" lon="6.47431">
        <ele>424.2</ele>
        <time>2021-11-26T09:39:33Z</time>
      </trkpt>
      <trkpt lat="43.55542" lon="6.47444">
        <ele>423.1</ele>
        <time>2021-11-26T09:39:48Z</time>
      </trkpt>
      <trkpt lat="43.55531" lon="6.47452">
        <ele>422.4</ele>
        <time>2021-11-26T09:40:02Z</time>
      </trkpt>
      <trkpt lat="43.55521" lon="6.47453">
        <ele>423.5</ele>
        <time>2021-11-26T09:40:16Z</time>
      </trkpt>
      <trkpt lat="43.55517" lon="6.47466">
        <ele>423.1</ele>
        <time>2021-11-26T09:40:28Z</time>
      </trkpt>
      <trkpt lat="43.55509" lon="6.4747">
        <ele>423.1</ele>
        <time>2021-11-26T09:40:39Z</time>
      </trkpt>
      <trkpt lat="43.55502" lon="6.47479">
        <ele>421.7</ele>
        <time>2021-11-26T09:40:53Z</time>
      </trkpt>
      <trkpt lat="43.55502" lon="6.47497">
        <ele>418.2</ele>
        <time>2021-11-26T09:41:08Z</time>
      </trkpt>
      <trkpt lat="43.55496" lon="6.47527">
        <ele>418.3</ele>
        <time>2021-11-26T09:41:27Z</time>
      </trkpt>
      <trkpt lat="43.55494" lon="6.47541">
        <ele>418.7</ele>
        <time>2021-11-26T09:41:39Z</time>
      </trkpt>
      <trkpt lat="43.55488" lon="6.47555">
        <ele>417.2</ele>
        <time>2021-11-26T09:41:54Z</time>
      </trkpt>
      <trkpt lat="43.55479" lon="6.47562">
        <ele>415.3</ele>
        <time>2021-11-26T09:42:08Z</time>
      </trkpt>
      <trkpt lat="43.55469" lon="6.47558">
        <ele>412.4</ele>
        <time>2021-11-26T09:42:22Z</time>
      </trkpt>
      <trkpt lat="43.55458" lon="6.47563">
        <ele>412.5</ele>
        <time>2021-11-26T09:42:35Z</time>
      </trkpt>
      <trkpt lat="43.55451" lon="6.47566">
        <ele>411.7</ele>
        <time>2021-11-26T09:42:51Z</time>
      </trkpt>
      <trkpt lat="43.5544" lon="6.47583">
        <ele>407.7</ele>
        <time>2021-11-26T09:43:05Z</time>
      </trkpt>
      <trkpt lat="43.55436" lon="6.47598">
        <ele>408.6</ele>
        <time>2021-11-26T09:43:21Z</time>
      </trkpt>
      <trkpt lat="43.55425" lon="6.47603">
        <ele>404.9</ele>
        <time>2021-11-26T09:43:39Z</time>
      </trkpt>
      <trkpt lat="43.55419" lon="6.47609">
        <ele>401.6</ele>
        <time>2021-11-26T09:43:53Z</time>
      </trkpt>
      <trkpt lat="43.55408" lon="6.47619">
        <ele>400.4</ele>
        <time>2021-11-26T09:44:08Z</time>
      </trkpt>
      <trkpt lat="43.55402" lon="6.47626">
        <ele>399.6</ele>
        <time>2021-11-26T09:44:26Z</time>
      </trkpt>
      <trkpt lat="43.55395" lon="6.47638">
        <ele>397.7</ele>
        <time>2021-11-26T09:44:45Z</time>
      </trkpt>
      <trkpt lat="43.55386" lon="6.47644">
        <ele>395.8</ele>
        <time>2021-11-26T09:44:59Z</time>
      </trkpt>
      <trkpt lat="43.55378" lon="6.47651">
        <ele>395.2</ele>
        <time>2021-11-26T09:45:16Z</time>
      </trkpt>
      <trkpt lat="43.55366" lon="6.4766">
        <ele>392.1</ele>
        <time>2021-11-26T09:45:32Z</time>
      </trkpt>
      <trkpt lat="43.55353" lon="6.47664">
        <ele>388.4</ele>
        <time>2021-11-26T09:45:47Z</time>
      </trkpt>
      <trkpt lat="43.55341" lon="6.47668">
        <ele>386.1</ele>
        <time>2021-11-26T09:46:01Z</time>
      </trkpt>
      <trkpt lat="43.55331" lon="6.47678">
        <ele>385.6</ele>
        <time>2021-11-26T09:46:16Z</time>
      </trkpt>
      <trkpt lat="43.55319" lon="6.47681">
        <ele>384.2</ele>
        <time>2021-11-26T09:46:31Z</time>
      </trkpt>
      <trkpt lat="43.55307" lon="6.47677">
        <ele>381.7</ele>
        <time>2021-11-26T09:46:43Z</time>
      </trkpt>
      <trkpt lat="43.55306" lon="6.47678">
        <ele>381.7</ele>
        <time>2021-11-26T09:47:18Z</time>
      </trkpt>
      <trkpt lat="43.55306" lon="6.47672">
        <ele>380.8</ele>
        <time>2021-11-26T09:47:40Z</time>
      </trkpt>
      <trkpt lat="43.55308" lon="6.47677">
        <ele>381.9</ele>
        <time>2021-11-26T09:47:59Z</time>
      </trkpt>
      <trkpt lat="43.55302" lon="6.47672">
        <ele>382</ele>
        <time>2021-11-26T09:48:18Z</time>
      </trkpt>
      <trkpt lat="43.55297" lon="6.47662">
        <ele>382.2</ele>
        <time>2021-11-26T09:48:37Z</time>
      </trkpt>
      <trkpt lat="43.55288" lon="6.47651">
        <ele>382.1</ele>
        <time>2021-11-26T09:48:51Z</time>
      </trkpt>
      <trkpt lat="43.55279" lon="6.47647">
        <ele>381.9</ele>
        <time>2021-11-26T09:49:00Z</time>
      </trkpt>
      <trkpt lat="43.55272" lon="6.47642">
        <ele>382.2</ele>
        <time>2021-11-26T09:49:09Z</time>
      </trkpt>
      <trkpt lat="43.55263" lon="6.47634">
        <ele>382.9</ele>
        <time>2021-11-26T09:49:19Z</time>
      </trkpt>
      <trkpt lat="43.55256" lon="6.47627">
        <ele>382.5</ele>
        <time>2021-11-26T09:49:27Z</time>
      </trkpt>
      <trkpt lat="43.55249" lon="6.47619">
        <ele>380.4</ele>
        <time>2021-11-26T09:49:36Z</time>
      </trkpt>
      <trkpt lat="43.55241" lon="6.47613">
        <ele>379.8</ele>
        <time>2021-11-26T09:49:45Z</time>
      </trkpt>
      <trkpt lat="43.55235" lon="6.47603">
        <ele>379.4</ele>
        <time>2021-11-26T09:49:54Z</time>
      </trkpt>
      <trkpt lat="43.55229" lon="6.47595">
        <ele>379.3</ele>
        <time>2021-11-26T09:50:02Z</time>
      </trkpt>
      <trkpt lat="43.55223" lon="6.47595">
        <ele>380.4</ele>
        <time>2021-11-26T09:50:13Z</time>
      </trkpt>
      <trkpt lat="43.55225" lon="6.47604">
        <ele>382</ele>
        <time>2021-11-26T09:50:27Z</time>
      </trkpt>
      <trkpt lat="43.55236" lon="6.47612">
        <ele>380.8</ele>
        <time>2021-11-26T09:50:44Z</time>
      </trkpt>
      <trkpt lat="43.55245" lon="6.4762">
        <ele>381.5</ele>
        <time>2021-11-26T09:50:58Z</time>
      </trkpt>
      <trkpt lat="43.55254" lon="6.47629">
        <ele>383.5</ele>
        <time>2021-11-26T09:51:09Z</time>
      </trkpt>
      <trkpt lat="43.55261" lon="6.4764">
        <ele>385</ele>
        <time>2021-11-26T09:51:21Z</time>
      </trkpt>
      <trkpt lat="43.55267" lon="6.4765">
        <ele>386.3</ele>
        <time>2021-11-26T09:51:33Z</time>
      </trkpt>
      <trkpt lat="43.55273" lon="6.47661">
        <ele>388.2</ele>
        <time>2021-11-26T09:51:45Z</time>
      </trkpt>
      <trkpt lat="43.55281" lon="6.47673">
        <ele>389.3</ele>
        <time>2021-11-26T09:51:58Z</time>
      </trkpt>
      <trkpt lat="43.55285" lon="6.47686">
        <ele>390.4</ele>
        <time>2021-11-26T09:52:11Z</time>
      </trkpt>
      <trkpt lat="43.55293" lon="6.47699">
        <ele>389.6</ele>
        <time>2021-11-26T09:52:22Z</time>
      </trkpt>
      <trkpt lat="43.55297" lon="6.47711">
        <ele>390.2</ele>
        <time>2021-11-26T09:52:31Z</time>
      </trkpt>
      <trkpt lat="43.553" lon="6.47724">
        <ele>390.4</ele>
        <time>2021-11-26T09:52:41Z</time>
      </trkpt>
      <trkpt lat="43.55307" lon="6.47739">
        <ele>390.2</ele>
        <time>2021-11-26T09:52:50Z</time>
      </trkpt>
      <trkpt lat="43.55312" lon="6.47752">
        <ele>392.8</ele>
        <time>2021-11-26T09:52:59Z</time>
      </trkpt>
      <trkpt lat="43.55315" lon="6.47765">
        <ele>394.5</ele>
        <time>2021-11-26T09:53:08Z</time>
      </trkpt>
      <trkpt lat="43.55317" lon="6.47778">
        <ele>395.8</ele>
        <time>2021-11-26T09:53:17Z</time>
      </trkpt>
      <trkpt lat="43.5532" lon="6.47795">
        <ele>396.6</ele>
        <time>2021-11-26T09:53:27Z</time>
      </trkpt>
      <trkpt lat="43.55325" lon="6.47809">
        <ele>396.4</ele>
        <time>2021-11-26T09:53:37Z</time>
      </trkpt>
      <trkpt lat="43.55328" lon="6.47823">
        <ele>396.2</ele>
        <time>2021-11-26T09:53:48Z</time>
      </trkpt>
      <trkpt lat="43.55329" lon="6.47839">
        <ele>396.6</ele>
        <time>2021-11-26T09:53:58Z</time>
      </trkpt>
      <trkpt lat="43.55328" lon="6.47852">
        <ele>398.1</ele>
        <time>2021-11-26T09:54:08Z</time>
      </trkpt>
      <trkpt lat="43.5533" lon="6.47864">
        <ele>398.9</ele>
        <time>2021-11-26T09:54:24Z</time>
      </trkpt>
      <trkpt lat="43.55332" lon="6.47873">
        <ele>400.5</ele>
        <time>2021-11-26T09:54:35Z</time>
      </trkpt>
      <trkpt lat="43.55341" lon="6.47883">
        <ele>401.4</ele>
        <time>2021-11-26T09:54:46Z</time>
      </trkpt>
      <trkpt lat="43.55347" lon="6.47897">
        <ele>402.5</ele>
        <time>2021-11-26T09:54:59Z</time>
      </trkpt>
      <trkpt lat="43.55353" lon="6.47912">
        <ele>402.9</ele>
        <time>2021-11-26T09:55:09Z</time>
      </trkpt>
      <trkpt lat="43.55356" lon="6.47927">
        <ele>403</ele>
        <time>2021-11-26T09:55:22Z</time>
      </trkpt>
      <trkpt lat="43.55353" lon="6.47942">
        <ele>404.1</ele>
        <time>2021-11-26T09:55:37Z</time>
      </trkpt>
      <trkpt lat="43.5535" lon="6.47963">
        <ele>406.5</ele>
        <time>2021-11-26T09:55:53Z</time>
      </trkpt>
      <trkpt lat="43.55355" lon="6.4798">
        <ele>407.1</ele>
        <time>2021-11-26T09:56:07Z</time>
      </trkpt>
      <trkpt lat="43.55348" lon="6.48009">
        <ele>410</ele>
        <time>2021-11-26T09:56:18Z</time>
      </trkpt>
      <trkpt lat="43.55345" lon="6.4803">
        <ele>411.1</ele>
        <time>2021-11-26T09:56:31Z</time>
      </trkpt>
      <trkpt lat="43.55341" lon="6.48048">
        <ele>411.7</ele>
        <time>2021-11-26T09:56:44Z</time>
      </trkpt>
      <trkpt lat="43.55342" lon="6.48065">
        <ele>412.7</ele>
        <time>2021-11-26T09:56:56Z</time>
      </trkpt>
      <trkpt lat="43.55342" lon="6.48084">
        <ele>414.1</ele>
        <time>2021-11-26T09:57:08Z</time>
      </trkpt>
      <trkpt lat="43.55344" lon="6.48101">
        <ele>414.4</ele>
        <time>2021-11-26T09:57:21Z</time>
      </trkpt>
      <trkpt lat="43.55343" lon="6.48119">
        <ele>415.2</ele>
        <time>2021-11-26T09:57:33Z</time>
      </trkpt>
      <trkpt lat="43.55344" lon="6.48134">
        <ele>415.3</ele>
        <time>2021-11-26T09:57:46Z</time>
      </trkpt>
      <trkpt lat="43.5534" lon="6.48151">
        <ele>415.8</ele>
        <time>2021-11-26T09:58:00Z</time>
      </trkpt>
      <trkpt lat="43.55335" lon="6.48163">
        <ele>415.3</ele>
        <time>2021-11-26T09:58:16Z</time>
      </trkpt>
      <trkpt lat="43.55338" lon="6.48198">
        <ele>416.4</ele>
        <time>2021-11-26T09:58:32Z</time>
      </trkpt>
      <trkpt lat="43.55332" lon="6.48207">
        <ele>416.7</ele>
        <time>2021-11-26T09:58:47Z</time>
      </trkpt>
      <trkpt lat="43.55326" lon="6.48222">
        <ele>418.5</ele>
        <time>2021-11-26T09:58:59Z</time>
      </trkpt>
      <trkpt lat="43.55322" lon="6.48242">
        <ele>419.5</ele>
        <time>2021-11-26T09:59:15Z</time>
      </trkpt>
      <trkpt lat="43.55318" lon="6.4826">
        <ele>419.9</ele>
        <time>2021-11-26T09:59:27Z</time>
      </trkpt>
      <trkpt lat="43.55317" lon="6.4829">
        <ele>420.9</ele>
        <time>2021-11-26T09:59:41Z</time>
      </trkpt>
      <trkpt lat="43.55319" lon="6.48304">
        <ele>421.8</ele>
        <time>2021-11-26T09:59:51Z</time>
      </trkpt>
      <trkpt lat="43.55323" lon="6.48316">
        <ele>422.6</ele>
        <time>2021-11-26T10:00:02Z</time>
      </trkpt>
      <trkpt lat="43.55328" lon="6.48329">
        <ele>423.3</ele>
        <time>2021-11-26T10:00:14Z</time>
      </trkpt>
      <trkpt lat="43.55335" lon="6.4834">
        <ele>424</ele>
        <time>2021-11-26T10:00:27Z</time>
      </trkpt>
      <trkpt lat="43.55339" lon="6.48355">
        <ele>423.8</ele>
        <time>2021-11-26T10:00:41Z</time>
      </trkpt>
      <trkpt lat="43.5535" lon="6.48368">
        <ele>425.2</ele>
        <time>2021-11-26T10:00:55Z</time>
      </trkpt>
      <trkpt lat="43.55359" lon="6.48379">
        <ele>425.7</ele>
        <time>2021-11-26T10:01:08Z</time>
      </trkpt>
      <trkpt lat="43.55365" lon="6.48392">
        <ele>426</ele>
        <time>2021-11-26T10:01:20Z</time>
      </trkpt>
      <trkpt lat="43.55367" lon="6.48411">
        <ele>425</ele>
        <time>2021-11-26T10:01:32Z</time>
      </trkpt>
      <trkpt lat="43.55381" lon="6.48435">
        <ele>427.7</ele>
        <time>2021-11-26T10:01:49Z</time>
      </trkpt>
      <trkpt lat="43.55387" lon="6.48452">
        <ele>427.6</ele>
        <time>2021-11-26T10:02:01Z</time>
      </trkpt>
      <trkpt lat="43.55392" lon="6.48465">
        <ele>427.8</ele>
        <time>2021-11-26T10:02:14Z</time>
      </trkpt>
      <trkpt lat="43.55402" lon="6.48473">
        <ele>428.4</ele>
        <time>2021-11-26T10:02:27Z</time>
      </trkpt>
      <trkpt lat="43.5542" lon="6.48477">
        <ele>429.6</ele>
        <time>2021-11-26T10:02:41Z</time>
      </trkpt>
      <trkpt lat="43.55432" lon="6.48475">
        <ele>430.4</ele>
        <time>2021-11-26T10:02:57Z</time>
      </trkpt>
      <trkpt lat="43.55441" lon="6.48478">
        <ele>430.6</ele>
        <time>2021-11-26T10:03:13Z</time>
      </trkpt>
      <trkpt lat="43.5545" lon="6.48473">
        <ele>431.2</ele>
        <time>2021-11-26T10:03:27Z</time>
      </trkpt>
      <trkpt lat="43.55461" lon="6.48472">
        <ele>431.6</ele>
        <time>2021-11-26T10:03:39Z</time>
      </trkpt>
      <trkpt lat="43.55473" lon="6.4847">
        <ele>432.6</ele>
        <time>2021-11-26T10:03:50Z</time>
      </trkpt>
      <trkpt lat="43.55483" lon="6.48466">
        <ele>433.7</ele>
        <time>2021-11-26T10:04:02Z</time>
      </trkpt>
      <trkpt lat="43.55492" lon="6.48467">
        <ele>433.5</ele>
        <time>2021-11-26T10:04:16Z</time>
      </trkpt>
      <trkpt lat="43.55499" lon="6.48469">
        <ele>432.9</ele>
        <time>2021-11-26T10:09:06Z</time>
      </trkpt>
      <trkpt lat="43.55516" lon="6.48466">
        <ele>434.9</ele>
        <time>2021-11-26T10:09:19Z</time>
      </trkpt>
      <trkpt lat="43.55531" lon="6.48465">
        <ele>436</ele>
        <time>2021-11-26T10:09:30Z</time>
      </trkpt>
      <trkpt lat="43.55546" lon="6.48467">
        <ele>436.1</ele>
        <time>2021-11-26T10:09:43Z</time>
      </trkpt>
      <trkpt lat="43.55561" lon="6.48469">
        <ele>436.9</ele>
        <time>2021-11-26T10:09:55Z</time>
      </trkpt>
      <trkpt lat="43.55576" lon="6.48469">
        <ele>438.7</ele>
        <time>2021-11-26T10:10:06Z</time>
      </trkpt>
      <trkpt lat="43.55589" lon="6.48468">
        <ele>439.8</ele>
        <time>2021-11-26T10:10:19Z</time>
      </trkpt>
      <trkpt lat="43.55602" lon="6.4847">
        <ele>440</ele>
        <time>2021-11-26T10:10:30Z</time>
      </trkpt>
      <trkpt lat="43.55614" lon="6.48471">
        <ele>440.4</ele>
        <time>2021-11-26T10:10:40Z</time>
      </trkpt>
      <trkpt lat="43.55625" lon="6.48473">
        <ele>441.5</ele>
        <time>2021-11-26T10:10:51Z</time>
      </trkpt>
      <trkpt lat="43.55638" lon="6.48474">
        <ele>442.6</ele>
        <time>2021-11-26T10:11:04Z</time>
      </trkpt>
      <trkpt lat="43.55653" lon="6.4848">
        <ele>442.5</ele>
        <time>2021-11-26T10:11:22Z</time>
      </trkpt>
      <trkpt lat="43.55667" lon="6.48481">
        <ele>443.1</ele>
        <time>2021-11-26T10:11:35Z</time>
      </trkpt>
      <trkpt lat="43.55681" lon="6.48489">
        <ele>443.4</ele>
        <time>2021-11-26T10:11:51Z</time>
      </trkpt>
      <trkpt lat="43.55702" lon="6.48497">
        <ele>445.2</ele>
        <time>2021-11-26T10:12:05Z</time>
      </trkpt>
      <trkpt lat="43.55723" lon="6.48506">
        <ele>447.7</ele>
        <time>2021-11-26T10:12:15Z</time>
      </trkpt>
      <trkpt lat="43.55734" lon="6.48508">
        <ele>448.2</ele>
        <time>2021-11-26T10:12:25Z</time>
      </trkpt>
      <trkpt lat="43.55744" lon="6.48507">
        <ele>448.9</ele>
        <time>2021-11-26T10:12:35Z</time>
      </trkpt>
      <trkpt lat="43.55756" lon="6.48506">
        <ele>449.6</ele>
        <time>2021-11-26T10:12:47Z</time>
      </trkpt>
      <trkpt lat="43.55767" lon="6.48506">
        <ele>450.1</ele>
        <time>2021-11-26T10:12:58Z</time>
      </trkpt>
      <trkpt lat="43.5578" lon="6.48504">
        <ele>450.8</ele>
        <time>2021-11-26T10:13:09Z</time>
      </trkpt>
      <trkpt lat="43.55795" lon="6.48502">
        <ele>451.6</ele>
        <time>2021-11-26T10:13:23Z</time>
      </trkpt>
      <trkpt lat="43.55809" lon="6.48502">
        <ele>452.2</ele>
        <time>2021-11-26T10:13:36Z</time>
      </trkpt>
      <trkpt lat="43.55824" lon="6.485">
        <ele>452.7</ele>
        <time>2021-11-26T10:13:48Z</time>
      </trkpt>
      <trkpt lat="43.55836" lon="6.48492">
        <ele>455.4</ele>
        <time>2021-11-26T10:14:00Z</time>
      </trkpt>
      <trkpt lat="43.55849" lon="6.48491">
        <ele>456.5</ele>
        <time>2021-11-26T10:14:12Z</time>
      </trkpt>
      <trkpt lat="43.5586" lon="6.48488">
        <ele>457.6</ele>
        <time>2021-11-26T10:14:22Z</time>
      </trkpt>
      <trkpt lat="43.55869" lon="6.48486">
        <ele>458.4</ele>
        <time>2021-11-26T10:14:31Z</time>
      </trkpt>
      <trkpt lat="43.55879" lon="6.48482">
        <ele>459.2</ele>
        <time>2021-11-26T10:14:42Z</time>
      </trkpt>
      <trkpt lat="43.55889" lon="6.48476">
        <ele>459.1</ele>
        <time>2021-11-26T10:14:53Z</time>
      </trkpt>
      <trkpt lat="43.55896" lon="6.48468">
        <ele>459.9</ele>
        <time>2021-11-26T10:15:03Z</time>
      </trkpt>
      <trkpt lat="43.55905" lon="6.48462">
        <ele>460.7</ele>
        <time>2021-11-26T10:15:13Z</time>
      </trkpt>
      <trkpt lat="43.55915" lon="6.48457">
        <ele>460.7</ele>
        <time>2021-11-26T10:15:23Z</time>
      </trkpt>
      <trkpt lat="43.55922" lon="6.4845">
        <ele>461</ele>
        <time>2021-11-26T10:15:33Z</time>
      </trkpt>
      <trkpt lat="43.55932" lon="6.48444">
        <ele>461</ele>
        <time>2021-11-26T10:15:43Z</time>
      </trkpt>
      <trkpt lat="43.5594" lon="6.48438">
        <ele>460.7</ele>
        <time>2021-11-26T10:15:52Z</time>
      </trkpt>
      <trkpt lat="43.55949" lon="6.48433">
        <ele>460.2</ele>
        <time>2021-11-26T10:16:01Z</time>
      </trkpt>
      <trkpt lat="43.5596" lon="6.48431">
        <ele>459.9</ele>
        <time>2021-11-26T10:16:10Z</time>
      </trkpt>
      <trkpt lat="43.5597" lon="6.48433">
        <ele>460</ele>
        <time>2021-11-26T10:16:20Z</time>
      </trkpt>
      <trkpt lat="43.5598" lon="6.48437">
        <ele>461.3</ele>
        <time>2021-11-26T10:16:32Z</time>
      </trkpt>
      <trkpt lat="43.5599" lon="6.48441">
        <ele>462.6</ele>
        <time>2021-11-26T10:16:43Z</time>
      </trkpt>
      <trkpt lat="43.56001" lon="6.48444">
        <ele>463.8</ele>
        <time>2021-11-26T10:16:53Z</time>
      </trkpt>
      <trkpt lat="43.56011" lon="6.48448">
        <ele>465.2</ele>
        <time>2021-11-26T10:17:03Z</time>
      </trkpt>
      <trkpt lat="43.5602" lon="6.4845">
        <ele>466</ele>
        <time>2021-11-26T10:17:12Z</time>
      </trkpt>
      <trkpt lat="43.56032" lon="6.48454">
        <ele>466.8</ele>
        <time>2021-11-26T10:17:23Z</time>
      </trkpt>
      <trkpt lat="43.56042" lon="6.48457">
        <ele>467.2</ele>
        <time>2021-11-26T10:17:33Z</time>
      </trkpt>
      <trkpt lat="43.56052" lon="6.48458">
        <ele>467.4</ele>
        <time>2021-11-26T10:17:43Z</time>
      </trkpt>
      <trkpt lat="43.5606" lon="6.48461">
        <ele>467.6</ele>
        <time>2021-11-26T10:17:52Z</time>
      </trkpt>
      <trkpt lat="43.56074" lon="6.48461">
        <ele>467.5</ele>
        <time>2021-11-26T10:24:04Z</time>
      </trkpt>
      <trkpt lat="43.5608" lon="6.48457">
        <ele>467.5</ele>
        <time>2021-11-26T10:25:36Z</time>
      </trkpt>
      <trkpt lat="43.56092" lon="6.48457">
        <ele>467.1</ele>
        <time>2021-11-26T10:25:49Z</time>
      </trkpt>
      <trkpt lat="43.56098" lon="6.48445">
        <ele>466.9</ele>
        <time>2021-11-26T10:25:59Z</time>
      </trkpt>
      <trkpt lat="43.56106" lon="6.48443">
        <ele>466.4</ele>
        <time>2021-11-26T10:26:11Z</time>
      </trkpt>
      <trkpt lat="43.56099" lon="6.48441">
        <ele>466.9</ele>
        <time>2021-11-26T10:26:23Z</time>
      </trkpt>
      <trkpt lat="43.56102" lon="6.48433">
        <ele>466.8</ele>
        <time>2021-11-26T10:26:46Z</time>
      </trkpt>
      <trkpt lat="43.56104" lon="6.48428">
        <ele>466.8</ele>
        <time>2021-11-26T10:27:26Z</time>
      </trkpt>
      <trkpt lat="43.56106" lon="6.48421">
        <ele>466.9</ele>
        <time>2021-11-26T10:27:50Z</time>
      </trkpt>
      <trkpt lat="43.56112" lon="6.48402">
        <ele>466.9</ele>
        <time>2021-11-26T10:28:03Z</time>
      </trkpt>
      <trkpt lat="43.56116" lon="6.4839">
        <ele>466.4</ele>
        <time>2021-11-26T10:28:11Z</time>
      </trkpt>
      <trkpt lat="43.5612" lon="6.48377">
        <ele>465.6</ele>
        <time>2021-11-26T10:28:18Z</time>
      </trkpt>
      <trkpt lat="43.56123" lon="6.48366">
        <ele>465.1</ele>
        <time>2021-11-26T10:28:26Z</time>
      </trkpt>
      <trkpt lat="43.56126" lon="6.4835">
        <ele>465.2</ele>
        <time>2021-11-26T10:28:35Z</time>
      </trkpt>
      <trkpt lat="43.56131" lon="6.48331">
        <ele>465.8</ele>
        <time>2021-11-26T10:28:46Z</time>
      </trkpt>
      <trkpt lat="43.56137" lon="6.48319">
        <ele>466.4</ele>
        <time>2021-11-26T10:28:58Z</time>
      </trkpt>
      <trkpt lat="43.56146" lon="6.48306">
        <ele>467</ele>
        <time>2021-11-26T10:29:09Z</time>
      </trkpt>
      <trkpt lat="43.56153" lon="6.48293">
        <ele>467.9</ele>
        <time>2021-11-26T10:29:20Z</time>
      </trkpt>
      <trkpt lat="43.56159" lon="6.48278">
        <ele>469.4</ele>
        <time>2021-11-26T10:29:31Z</time>
      </trkpt>
      <trkpt lat="43.56162" lon="6.48262">
        <ele>471.8</ele>
        <time>2021-11-26T10:29:42Z</time>
      </trkpt>
      <trkpt lat="43.56165" lon="6.4825">
        <ele>473.8</ele>
        <time>2021-11-26T10:29:52Z</time>
      </trkpt>
      <trkpt lat="43.56168" lon="6.48238">
        <ele>475.2</ele>
        <time>2021-11-26T10:30:03Z</time>
      </trkpt>
      <trkpt lat="43.5617" lon="6.48228">
        <ele>476.2</ele>
        <time>2021-11-26T10:30:15Z</time>
      </trkpt>
      <trkpt lat="43.56174" lon="6.48216">
        <ele>477.6</ele>
        <time>2021-11-26T10:30:27Z</time>
      </trkpt>
      <trkpt lat="43.56178" lon="6.48202">
        <ele>479.5</ele>
        <time>2021-11-26T10:30:38Z</time>
      </trkpt>
      <trkpt lat="43.56181" lon="6.48189">
        <ele>480.9</ele>
        <time>2021-11-26T10:30:47Z</time>
      </trkpt>
      <trkpt lat="43.56183" lon="6.4818">
        <ele>481.5</ele>
        <time>2021-11-26T10:30:58Z</time>
      </trkpt>
      <trkpt lat="43.56187" lon="6.48166">
        <ele>482.3</ele>
        <time>2021-11-26T10:31:11Z</time>
      </trkpt>
      <trkpt lat="43.56191" lon="6.48151">
        <ele>484.3</ele>
        <time>2021-11-26T10:31:25Z</time>
      </trkpt>
      <trkpt lat="43.56195" lon="6.48132">
        <ele>487</ele>
        <time>2021-11-26T10:31:44Z</time>
      </trkpt>
      <trkpt lat="43.56202" lon="6.48118">
        <ele>488.9</ele>
        <time>2021-11-26T10:32:01Z</time>
      </trkpt>
      <trkpt lat="43.5621" lon="6.48105">
        <ele>491</ele>
        <time>2021-11-26T10:32:16Z</time>
      </trkpt>
      <trkpt lat="43.56216" lon="6.48093">
        <ele>492.8</ele>
        <time>2021-11-26T10:32:29Z</time>
      </trkpt>
      <trkpt lat="43.56223" lon="6.48083">
        <ele>493.9</ele>
        <time>2021-11-26T10:32:40Z</time>
      </trkpt>
      <trkpt lat="43.56228" lon="6.48073">
        <ele>494.4</ele>
        <time>2021-11-26T10:32:51Z</time>
      </trkpt>
      <trkpt lat="43.56233" lon="6.48064">
        <ele>494.8</ele>
        <time>2021-11-26T10:33:02Z</time>
      </trkpt>
      <trkpt lat="43.56237" lon="6.4805">
        <ele>495.8</ele>
        <time>2021-11-26T10:33:13Z</time>
      </trkpt>
      <trkpt lat="43.5624" lon="6.48036">
        <ele>496.7</ele>
        <time>2021-11-26T10:33:22Z</time>
      </trkpt>
      <trkpt lat="43.56245" lon="6.48024">
        <ele>497.6</ele>
        <time>2021-11-26T10:33:32Z</time>
      </trkpt>
      <trkpt lat="43.56245" lon="6.48008">
        <ele>499.3</ele>
        <time>2021-11-26T10:33:47Z</time>
      </trkpt>
      <trkpt lat="43.56245" lon="6.47996">
        <ele>500.3</ele>
        <time>2021-11-26T10:33:56Z</time>
      </trkpt>
      <trkpt lat="43.56245" lon="6.47984">
        <ele>500.7</ele>
        <time>2021-11-26T10:34:08Z</time>
      </trkpt>
      <trkpt lat="43.56246" lon="6.47968">
        <ele>501.4</ele>
        <time>2021-11-26T10:34:19Z</time>
      </trkpt>
      <trkpt lat="43.56243" lon="6.4795">
        <ele>502.7</ele>
        <time>2021-11-26T10:34:31Z</time>
      </trkpt>
      <trkpt lat="43.56239" lon="6.47934">
        <ele>503.2</ele>
        <time>2021-11-26T10:34:43Z</time>
      </trkpt>
      <trkpt lat="43.56235" lon="6.47922">
        <ele>502.8</ele>
        <time>2021-11-26T10:34:55Z</time>
      </trkpt>
      <trkpt lat="43.56232" lon="6.47911">
        <ele>502.6</ele>
        <time>2021-11-26T10:35:04Z</time>
      </trkpt>
      <trkpt lat="43.56228" lon="6.47897">
        <ele>502.2</ele>
        <time>2021-11-26T10:35:14Z</time>
      </trkpt>
      <trkpt lat="43.56227" lon="6.47882">
        <ele>502.9</ele>
        <time>2021-11-26T10:35:23Z</time>
      </trkpt>
      <trkpt lat="43.56227" lon="6.47863">
        <ele>504.9</ele>
        <time>2021-11-26T10:35:32Z</time>
      </trkpt>
      <trkpt lat="43.56225" lon="6.4785">
        <ele>506.2</ele>
        <time>2021-11-26T10:35:41Z</time>
      </trkpt>
      <trkpt lat="43.56223" lon="6.47838">
        <ele>507.5</ele>
        <time>2021-11-26T10:35:50Z</time>
      </trkpt>
      <trkpt lat="43.56218" lon="6.47826">
        <ele>507.7</ele>
        <time>2021-11-26T10:36:00Z</time>
      </trkpt>
      <trkpt lat="43.56218" lon="6.47816">
        <ele>508.8</ele>
        <time>2021-11-26T10:36:10Z</time>
      </trkpt>
      <trkpt lat="43.56215" lon="6.47802">
        <ele>509.2</ele>
        <time>2021-11-26T10:36:19Z</time>
      </trkpt>
      <trkpt lat="43.56214" lon="6.47788">
        <ele>508.9</ele>
        <time>2021-11-26T10:36:28Z</time>
      </trkpt>
      <trkpt lat="43.56215" lon="6.47774">
        <ele>509.1</ele>
        <time>2021-11-26T10:36:38Z</time>
      </trkpt>
      <trkpt lat="43.56217" lon="6.47761">
        <ele>509.8</ele>
        <time>2021-11-26T10:36:47Z</time>
      </trkpt>
      <trkpt lat="43.56217" lon="6.47748">
        <ele>510.1</ele>
        <time>2021-11-26T10:36:56Z</time>
      </trkpt>
      <trkpt lat="43.56218" lon="6.47735">
        <ele>511</ele>
        <time>2021-11-26T10:37:05Z</time>
      </trkpt>
      <trkpt lat="43.56217" lon="6.47722">
        <ele>510.8</ele>
        <time>2021-11-26T10:37:13Z</time>
      </trkpt>
      <trkpt lat="43.56217" lon="6.4771">
        <ele>512.3</ele>
        <time>2021-11-26T10:37:21Z</time>
      </trkpt>
      <trkpt lat="43.56216" lon="6.47698">
        <ele>513.3</ele>
        <time>2021-11-26T10:37:29Z</time>
      </trkpt>
      <trkpt lat="43.56214" lon="6.47688">
        <ele>513.7</ele>
        <time>2021-11-26T10:37:36Z</time>
      </trkpt>
      <trkpt lat="43.56211" lon="6.47676">
        <ele>513.7</ele>
        <time>2021-11-26T10:37:43Z</time>
      </trkpt>
      <trkpt lat="43.56206" lon="6.47664">
        <ele>513.3</ele>
        <time>2021-11-26T10:37:51Z</time>
      </trkpt>
      <trkpt lat="43.56202" lon="6.47653">
        <ele>513.6</ele>
        <time>2021-11-26T10:37:59Z</time>
      </trkpt>
      <trkpt lat="43.56198" lon="6.47641">
        <ele>513.7</ele>
        <time>2021-11-26T10:38:07Z</time>
      </trkpt>
      <trkpt lat="43.56194" lon="6.47628">
        <ele>514.1</ele>
        <time>2021-11-26T10:38:15Z</time>
      </trkpt>
      <trkpt lat="43.5619" lon="6.47617">
        <ele>514.2</ele>
        <time>2021-11-26T10:38:23Z</time>
      </trkpt>
      <trkpt lat="43.56187" lon="6.47606">
        <ele>514.8</ele>
        <time>2021-11-26T10:38:31Z</time>
      </trkpt>
      <trkpt lat="43.56183" lon="6.47597">
        <ele>515.2</ele>
        <time>2021-11-26T10:38:39Z</time>
      </trkpt>
      <trkpt lat="43.56179" lon="6.47589">
        <ele>515.9</ele>
        <time>2021-11-26T10:38:48Z</time>
      </trkpt>
      <trkpt lat="43.56174" lon="6.47581">
        <ele>517</ele>
        <time>2021-11-26T10:38:57Z</time>
      </trkpt>
      <trkpt lat="43.56165" lon="6.47576">
        <ele>517.2</ele>
        <time>2021-11-26T10:40:30Z</time>
      </trkpt>
      <trkpt lat="43.56179" lon="6.47564">
        <ele>520.4</ele>
        <time>2021-11-26T10:40:48Z</time>
      </trkpt>
      <trkpt lat="43.56197" lon="6.47561">
        <ele>522.5</ele>
        <time>2021-11-26T10:40:58Z</time>
      </trkpt>
      <trkpt lat="43.56203" lon="6.47569">
        <ele>522.5</ele>
        <time>2021-11-26T10:44:45Z</time>
      </trkpt>
      <trkpt lat="43.56217" lon="6.47574">
        <ele>524.8</ele>
        <time>2021-11-26T10:44:58Z</time>
      </trkpt>
      <trkpt lat="43.56223" lon="6.47588">
        <ele>525</ele>
        <time>2021-11-26T10:45:11Z</time>
      </trkpt>
      <trkpt lat="43.56234" lon="6.47598">
        <ele>527.9</ele>
        <time>2021-11-26T10:45:25Z</time>
      </trkpt>
      <trkpt lat="43.56242" lon="6.47607">
        <ele>529.9</ele>
        <time>2021-11-26T10:45:38Z</time>
      </trkpt>
      <trkpt lat="43.56248" lon="6.47618">
        <ele>531</ele>
        <time>2021-11-26T10:45:54Z</time>
      </trkpt>
      <trkpt lat="43.56255" lon="6.47607">
        <ele>533.2</ele>
        <time>2021-11-26T10:46:11Z</time>
      </trkpt>
      <trkpt lat="43.56262" lon="6.47598">
        <ele>535.5</ele>
        <time>2021-11-26T10:46:25Z</time>
      </trkpt>
      <trkpt lat="43.56267" lon="6.47586">
        <ele>537.5</ele>
        <time>2021-11-26T10:46:39Z</time>
      </trkpt>
      <trkpt lat="43.56274" lon="6.47574">
        <ele>540.6</ele>
        <time>2021-11-26T10:46:56Z</time>
      </trkpt>
      <trkpt lat="43.56279" lon="6.47564">
        <ele>542.8</ele>
        <time>2021-11-26T10:47:13Z</time>
      </trkpt>
      <trkpt lat="43.56286" lon="6.47552">
        <ele>545.5</ele>
        <time>2021-11-26T10:47:31Z</time>
      </trkpt>
      <trkpt lat="43.56291" lon="6.47539">
        <ele>548</ele>
        <time>2021-11-26T10:47:49Z</time>
      </trkpt>
      <trkpt lat="43.56298" lon="6.47529">
        <ele>551</ele>
        <time>2021-11-26T10:48:09Z</time>
      </trkpt>
      <trkpt lat="43.56304" lon="6.47518">
        <ele>553.8</ele>
        <time>2021-11-26T10:48:29Z</time>
      </trkpt>
      <trkpt lat="43.56307" lon="6.47517">
        <ele>554.4</ele>
        <time>2021-11-26T10:48:55Z</time>
      </trkpt>
      <trkpt lat="43.56312" lon="6.47504">
        <ele>556.7</ele>
        <time>2021-11-26T10:49:12Z</time>
      </trkpt>
      <trkpt lat="43.56319" lon="6.47494">
        <ele>559.3</ele>
        <time>2021-11-26T10:49:28Z</time>
      </trkpt>
      <trkpt lat="43.56326" lon="6.47482">
        <ele>562.6</ele>
        <time>2021-11-26T10:49:49Z</time>
      </trkpt>
      <trkpt lat="43.56332" lon="6.47471">
        <ele>565.7</ele>
        <time>2021-11-26T10:50:09Z</time>
      </trkpt>
      <trkpt lat="43.56336" lon="6.47462">
        <ele>568</ele>
        <time>2021-11-26T10:50:28Z</time>
      </trkpt>
      <trkpt lat="43.56341" lon="6.47451">
        <ele>570.7</ele>
        <time>2021-11-26T10:50:51Z</time>
      </trkpt>
      <trkpt lat="43.56347" lon="6.47441">
        <ele>573.6</ele>
        <time>2021-11-26T10:51:10Z</time>
      </trkpt>
      <trkpt lat="43.56353" lon="6.47431">
        <ele>576.3</ele>
        <time>2021-11-26T10:51:25Z</time>
      </trkpt>
      <trkpt lat="43.56355" lon="6.47422">
        <ele>577.9</ele>
        <time>2021-11-26T10:51:52Z</time>
      </trkpt>
      <trkpt lat="43.56361" lon="6.47412">
        <ele>580.7</ele>
        <time>2021-11-26T10:52:15Z</time>
      </trkpt>
      <trkpt lat="43.56367" lon="6.47403">
        <ele>582.9</ele>
        <time>2021-11-26T10:52:37Z</time>
      </trkpt>
      <trkpt lat="43.56372" lon="6.47401">
        <ele>584</ele>
        <time>2021-11-26T10:53:03Z</time>
      </trkpt>
      <trkpt lat="43.56378" lon="6.4739">
        <ele>586.8</ele>
        <time>2021-11-26T10:53:22Z</time>
      </trkpt>
      <trkpt lat="43.56382" lon="6.4738">
        <ele>589</ele>
        <time>2021-11-26T10:53:41Z</time>
      </trkpt>
      <trkpt lat="43.56387" lon="6.47372">
        <ele>591.2</ele>
        <time>2021-11-26T10:53:58Z</time>
      </trkpt>
      <trkpt lat="43.56394" lon="6.47361">
        <ele>593.2</ele>
        <time>2021-11-26T10:54:15Z</time>
      </trkpt>
      <trkpt lat="43.56402" lon="6.4735">
        <ele>594.9</ele>
        <time>2021-11-26T10:54:31Z</time>
      </trkpt>
      <trkpt lat="43.56408" lon="6.47338">
        <ele>596.7</ele>
        <time>2021-11-26T10:54:47Z</time>
      </trkpt>
      <trkpt lat="43.56412" lon="6.47321">
        <ele>599</ele>
        <time>2021-11-26T10:55:05Z</time>
      </trkpt>
      <trkpt lat="43.56416" lon="6.47306">
        <ele>600.8</ele>
        <time>2021-11-26T10:55:22Z</time>
      </trkpt>
      <trkpt lat="43.56418" lon="6.47291">
        <ele>601.8</ele>
        <time>2021-11-26T10:55:40Z</time>
      </trkpt>
      <trkpt lat="43.56418" lon="6.47274">
        <ele>602.9</ele>
        <time>2021-11-26T10:55:55Z</time>
      </trkpt>
      <trkpt lat="43.56418" lon="6.47262">
        <ele>603.4</ele>
        <time>2021-11-26T10:56:15Z</time>
      </trkpt>
      <trkpt lat="43.56419" lon="6.4726">
        <ele>603.4</ele>
        <time>2021-11-26T10:57:36Z</time>
      </trkpt>
      <trkpt lat="43.56413" lon="6.47258">
        <ele>603.2</ele>
        <time>2021-11-26T10:58:28Z</time>
      </trkpt>
      <trkpt lat="43.56414" lon="6.47261">
        <ele>603.2</ele>
        <time>2021-11-26T10:59:08Z</time>
      </trkpt>
      <trkpt lat="43.5641" lon="6.47257">
        <ele>602.8</ele>
        <time>2021-11-26T11:35:01Z</time>
      </trkpt>
      <trkpt lat="43.5642" lon="6.47259">
        <ele>603.3</ele>
        <time>2021-11-26T11:35:33Z</time>
      </trkpt>
      <trkpt lat="43.56421" lon="6.47246">
        <ele>603.3</ele>
        <time>2021-11-26T11:35:51Z</time>
      </trkpt>
      <trkpt lat="43.56425" lon="6.47235">
        <ele>602.3</ele>
        <time>2021-11-26T11:36:02Z</time>
      </trkpt>
      <trkpt lat="43.5643" lon="6.47221">
        <ele>601.4</ele>
        <time>2021-11-26T11:36:14Z</time>
      </trkpt>
      <trkpt lat="43.56439" lon="6.47207">
        <ele>600.2</ele>
        <time>2021-11-26T11:36:29Z</time>
      </trkpt>
      <trkpt lat="43.56444" lon="6.47191">
        <ele>598.6</ele>
        <time>2021-11-26T11:36:42Z</time>
      </trkpt>
      <trkpt lat="43.56448" lon="6.47176">
        <ele>596.4</ele>
        <time>2021-11-26T11:36:58Z</time>
      </trkpt>
      <trkpt lat="43.56453" lon="6.47161">
        <ele>594.6</ele>
        <time>2021-11-26T11:37:12Z</time>
      </trkpt>
      <trkpt lat="43.56461" lon="6.47143">
        <ele>593.3</ele>
        <time>2021-11-26T11:37:26Z</time>
      </trkpt>
      <trkpt lat="43.56469" lon="6.47129">
        <ele>591.6</ele>
        <time>2021-11-26T11:37:38Z</time>
      </trkpt>
      <trkpt lat="43.56467" lon="6.47117">
        <ele>590.8</ele>
        <time>2021-11-26T11:37:52Z</time>
      </trkpt>
      <trkpt lat="43.56463" lon="6.47106">
        <ele>590.3</ele>
        <time>2021-11-26T11:38:03Z</time>
      </trkpt>
      <trkpt lat="43.56454" lon="6.47092">
        <ele>590</ele>
        <time>2021-11-26T11:38:17Z</time>
      </trkpt>
      <trkpt lat="43.56445" lon="6.47082">
        <ele>589.8</ele>
        <time>2021-11-26T11:38:30Z</time>
      </trkpt>
      <trkpt lat="43.56431" lon="6.47072">
        <ele>588.3</ele>
        <time>2021-11-26T11:38:45Z</time>
      </trkpt>
      <trkpt lat="43.56417" lon="6.47059">
        <ele>586.4</ele>
        <time>2021-11-26T11:39:02Z</time>
      </trkpt>
      <trkpt lat="43.56411" lon="6.47041">
        <ele>584</ele>
        <time>2021-11-26T11:39:15Z</time>
      </trkpt>
      <trkpt lat="43.56412" lon="6.47025">
        <ele>582.3</ele>
        <time>2021-11-26T11:39:26Z</time>
      </trkpt>
      <trkpt lat="43.56422" lon="6.47019">
        <ele>582</ele>
        <time>2021-11-26T11:39:36Z</time>
      </trkpt>
      <trkpt lat="43.56432" lon="6.47012">
        <ele>581.3</ele>
        <time>2021-11-26T11:39:49Z</time>
      </trkpt>
      <trkpt lat="43.56445" lon="6.47007">
        <ele>581</ele>
        <time>2021-11-26T11:40:00Z</time>
      </trkpt>
      <trkpt lat="43.56448" lon="6.46996">
        <ele>579.3</ele>
        <time>2021-11-26T11:40:13Z</time>
      </trkpt>
      <trkpt lat="43.56438" lon="6.4699">
        <ele>578.3</ele>
        <time>2021-11-26T11:40:25Z</time>
      </trkpt>
      <trkpt lat="43.56426" lon="6.46987">
        <ele>577.5</ele>
        <time>2021-11-26T11:40:36Z</time>
      </trkpt>
      <trkpt lat="43.56415" lon="6.46982">
        <ele>576.3</ele>
        <time>2021-11-26T11:40:49Z</time>
      </trkpt>
      <trkpt lat="43.5642" lon="6.46969">
        <ele>574.6</ele>
        <time>2021-11-26T11:41:02Z</time>
      </trkpt>
      <trkpt lat="43.56428" lon="6.46964">
        <ele>574</ele>
        <time>2021-11-26T11:41:12Z</time>
      </trkpt>
      <trkpt lat="43.56437" lon="6.46955">
        <ele>573.1</ele>
        <time>2021-11-26T11:41:24Z</time>
      </trkpt>
      <trkpt lat="43.56448" lon="6.46951">
        <ele>572.9</ele>
        <time>2021-11-26T11:41:34Z</time>
      </trkpt>
      <trkpt lat="43.56458" lon="6.46946">
        <ele>572.2</ele>
        <time>2021-11-26T11:41:44Z</time>
      </trkpt>
      <trkpt lat="43.56467" lon="6.46947">
        <ele>572.3</ele>
        <time>2021-11-26T11:41:56Z</time>
      </trkpt>
      <trkpt lat="43.56465" lon="6.46933">
        <ele>571.1</ele>
        <time>2021-11-26T11:42:08Z</time>
      </trkpt>
      <trkpt lat="43.56458" lon="6.46923">
        <ele>570</ele>
        <time>2021-11-26T11:42:19Z</time>
      </trkpt>
      <trkpt lat="43.56448" lon="6.46918">
        <ele>569.2</ele>
        <time>2021-11-26T11:42:30Z</time>
      </trkpt>
      <trkpt lat="43.56436" lon="6.46912">
        <ele>567.9</ele>
        <time>2021-11-26T11:42:41Z</time>
      </trkpt>
      <trkpt lat="43.5643" lon="6.46897">
        <ele>566.2</ele>
        <time>2021-11-26T11:42:52Z</time>
      </trkpt>
      <trkpt lat="43.5642" lon="6.4689">
        <ele>564.5</ele>
        <time>2021-11-26T11:43:03Z</time>
      </trkpt>
      <trkpt lat="43.56412" lon="6.46879">
        <ele>563.4</ele>
        <time>2021-11-26T11:43:13Z</time>
      </trkpt>
      <trkpt lat="43.56402" lon="6.46869">
        <ele>562.3</ele>
        <time>2021-11-26T11:43:24Z</time>
      </trkpt>
      <trkpt lat="43.56393" lon="6.46861">
        <ele>561.3</ele>
        <time>2021-11-26T11:43:34Z</time>
      </trkpt>
      <trkpt lat="43.56385" lon="6.46855">
        <ele>560.3</ele>
        <time>2021-11-26T11:43:43Z</time>
      </trkpt>
      <trkpt lat="43.56388" lon="6.46846">
        <ele>560.3</ele>
        <time>2021-11-26T11:44:09Z</time>
      </trkpt>
      <trkpt lat="43.56384" lon="6.46829">
        <ele>559.4</ele>
        <time>2021-11-26T11:44:20Z</time>
      </trkpt>
      <trkpt lat="43.56383" lon="6.46815">
        <ele>558.8</ele>
        <time>2021-11-26T11:44:31Z</time>
      </trkpt>
      <trkpt lat="43.56387" lon="6.46801">
        <ele>558.7</ele>
        <time>2021-11-26T11:44:41Z</time>
      </trkpt>
      <trkpt lat="43.56388" lon="6.46785">
        <ele>558.2</ele>
        <time>2021-11-26T11:44:51Z</time>
      </trkpt>
      <trkpt lat="43.56387" lon="6.4677">
        <ele>557.9</ele>
        <time>2021-11-26T11:45:02Z</time>
      </trkpt>
      <trkpt lat="43.56388" lon="6.46755">
        <ele>557.9</ele>
        <time>2021-11-26T11:45:13Z</time>
      </trkpt>
      <trkpt lat="43.56388" lon="6.46737">
        <ele>557.4</ele>
        <time>2021-11-26T11:45:26Z</time>
      </trkpt>
      <trkpt lat="43.56393" lon="6.46722">
        <ele>557.3</ele>
        <time>2021-11-26T11:45:38Z</time>
      </trkpt>
      <trkpt lat="43.56399" lon="6.46714">
        <ele>556.6</ele>
        <time>2021-11-26T11:45:48Z</time>
      </trkpt>
      <trkpt lat="43.56407" lon="6.46705">
        <ele>556.2</ele>
        <time>2021-11-26T11:45:57Z</time>
      </trkpt>
      <trkpt lat="43.56415" lon="6.46697">
        <ele>556.1</ele>
        <time>2021-11-26T11:46:08Z</time>
      </trkpt>
      <trkpt lat="43.56423" lon="6.46686">
        <ele>555.2</ele>
        <time>2021-11-26T11:46:18Z</time>
      </trkpt>
      <trkpt lat="43.56427" lon="6.46672">
        <ele>553.6</ele>
        <time>2021-11-26T11:46:31Z</time>
      </trkpt>
      <trkpt lat="43.56428" lon="6.46664">
        <ele>552.4</ele>
        <time>2021-11-26T11:46:51Z</time>
      </trkpt>
      <trkpt lat="43.56424" lon="6.46647">
        <ele>550.2</ele>
        <time>2021-11-26T11:47:05Z</time>
      </trkpt>
      <trkpt lat="43.56419" lon="6.46635">
        <ele>548.5</ele>
        <time>2021-11-26T11:47:17Z</time>
      </trkpt>
      <trkpt lat="43.56411" lon="6.46624">
        <ele>546.4</ele>
        <time>2021-11-26T11:47:33Z</time>
      </trkpt>
      <trkpt lat="43.56406" lon="6.46609">
        <ele>543.3</ele>
        <time>2021-11-26T11:47:49Z</time>
      </trkpt>
      <trkpt lat="43.56397" lon="6.46603">
        <ele>540.5</ele>
        <time>2021-11-26T11:48:06Z</time>
      </trkpt>
      <trkpt lat="43.56392" lon="6.4659">
        <ele>536.4</ele>
        <time>2021-11-26T11:48:23Z</time>
      </trkpt>
      <trkpt lat="43.56393" lon="6.46578">
        <ele>532.7</ele>
        <time>2021-11-26T11:48:38Z</time>
      </trkpt>
      <trkpt lat="43.56385" lon="6.46573">
        <ele>529.9</ele>
        <time>2021-11-26T11:48:57Z</time>
      </trkpt>
      <trkpt lat="43.5638" lon="6.46565">
        <ele>526.7</ele>
        <time>2021-11-26T11:49:13Z</time>
      </trkpt>
      <trkpt lat="43.56387" lon="6.46554">
        <ele>523.3</ele>
        <time>2021-11-26T11:49:24Z</time>
      </trkpt>
      <trkpt lat="43.56387" lon="6.46545">
        <ele>519.3</ele>
        <time>2021-11-26T11:49:38Z</time>
      </trkpt>
      <trkpt lat="43.56378" lon="6.46545">
        <ele>519.3</ele>
        <time>2021-11-26T11:49:53Z</time>
      </trkpt>
      <trkpt lat="43.56383" lon="6.4654">
        <ele>517.1</ele>
        <time>2021-11-26T11:50:07Z</time>
      </trkpt>
      <trkpt lat="43.56373" lon="6.4653">
        <ele>513.4</ele>
        <time>2021-11-26T11:50:25Z</time>
      </trkpt>
      <trkpt lat="43.56376" lon="6.46518">
        <ele>510</ele>
        <time>2021-11-26T11:50:38Z</time>
      </trkpt>
      <trkpt lat="43.56367" lon="6.46515">
        <ele>509.2</ele>
        <time>2021-11-26T11:50:54Z</time>
      </trkpt>
      <trkpt lat="43.56364" lon="6.46506">
        <ele>506.7</ele>
        <time>2021-11-26T11:51:09Z</time>
      </trkpt>
      <trkpt lat="43.56358" lon="6.46496">
        <ele>504.2</ele>
        <time>2021-11-26T11:51:20Z</time>
      </trkpt>
      <trkpt lat="43.56358" lon="6.46486">
        <ele>502.6</ele>
        <time>2021-11-26T11:51:36Z</time>
      </trkpt>
      <trkpt lat="43.56359" lon="6.46487">
        <ele>502.9</ele>
        <time>2021-11-26T11:52:05Z</time>
      </trkpt>
      <trkpt lat="43.5636" lon="6.46497">
        <ele>504.5</ele>
        <time>2021-11-26T11:52:52Z</time>
      </trkpt>
      <trkpt lat="43.56361" lon="6.46488">
        <ele>503.3</ele>
        <time>2021-11-26T11:53:41Z</time>
      </trkpt>
      <trkpt lat="43.56356" lon="6.46489">
        <ele>502.9</ele>
        <time>2021-11-26T11:54:06Z</time>
      </trkpt>
      <trkpt lat="43.56349" lon="6.46487">
        <ele>501.8</ele>
        <time>2021-11-26T11:54:16Z</time>
      </trkpt>
      <trkpt lat="43.56343" lon="6.46473">
        <ele>498.7</ele>
        <time>2021-11-26T11:54:25Z</time>
      </trkpt>
      <trkpt lat="43.56342" lon="6.46457">
        <ele>498.4</ele>
        <time>2021-11-26T11:54:33Z</time>
      </trkpt>
      <trkpt lat="43.56337" lon="6.46445">
        <ele>497.7</ele>
        <time>2021-11-26T11:54:44Z</time>
      </trkpt>
      <trkpt lat="43.56333" lon="6.46436">
        <ele>497.6</ele>
        <time>2021-11-26T11:54:55Z</time>
      </trkpt>
      <trkpt lat="43.56332" lon="6.46423">
        <ele>498.2</ele>
        <time>2021-11-26T11:55:06Z</time>
      </trkpt>
      <trkpt lat="43.56327" lon="6.4641">
        <ele>497.3</ele>
        <time>2021-11-26T11:55:22Z</time>
      </trkpt>
      <trkpt lat="43.56324" lon="6.46395">
        <ele>498.1</ele>
        <time>2021-11-26T11:55:38Z</time>
      </trkpt>
      <trkpt lat="43.56319" lon="6.46376">
        <ele>497.5</ele>
        <time>2021-11-26T11:55:52Z</time>
      </trkpt>
      <trkpt lat="43.56316" lon="6.46358">
        <ele>498</ele>
        <time>2021-11-26T11:56:08Z</time>
      </trkpt>
      <trkpt lat="43.56308" lon="6.46346">
        <ele>497.8</ele>
        <time>2021-11-26T11:56:23Z</time>
      </trkpt>
      <trkpt lat="43.56302" lon="6.46333">
        <ele>498.6</ele>
        <time>2021-11-26T11:56:39Z</time>
      </trkpt>
      <trkpt lat="43.56307" lon="6.46316">
        <ele>502.1</ele>
        <time>2021-11-26T11:56:52Z</time>
      </trkpt>
      <trkpt lat="43.56313" lon="6.46307">
        <ele>503.7</ele>
        <time>2021-11-26T11:57:09Z</time>
      </trkpt>
      <trkpt lat="43.5631" lon="6.46294">
        <ele>505.6</ele>
        <time>2021-11-26T11:57:32Z</time>
      </trkpt>
      <trkpt lat="43.56305" lon="6.46281">
        <ele>507.3</ele>
        <time>2021-11-26T11:57:58Z</time>
      </trkpt>
      <trkpt lat="43.56302" lon="6.46269">
        <ele>508.7</ele>
        <time>2021-11-26T11:58:24Z</time>
      </trkpt>
      <trkpt lat="43.563" lon="6.4626">
        <ele>510</ele>
        <time>2021-11-26T11:58:52Z</time>
      </trkpt>
      <trkpt lat="43.56299" lon="6.46248">
        <ele>511.7</ele>
        <time>2021-11-26T11:59:13Z</time>
      </trkpt>
      <trkpt lat="43.56295" lon="6.46235">
        <ele>510.2</ele>
        <time>2021-11-26T11:59:29Z</time>
      </trkpt>
      <trkpt lat="43.56296" lon="6.46224">
        <ele>510.6</ele>
        <time>2021-11-26T12:00:16Z</time>
      </trkpt>
      <trkpt lat="43.56291" lon="6.46214">
        <ele>507.3</ele>
        <time>2021-11-26T12:01:01Z</time>
      </trkpt>
      <trkpt lat="43.56289" lon="6.462">
        <ele>505</ele>
        <time>2021-11-26T12:01:19Z</time>
      </trkpt>
      <trkpt lat="43.56292" lon="6.46186">
        <ele>505.8</ele>
        <time>2021-11-26T12:01:40Z</time>
      </trkpt>
      <trkpt lat="43.56295" lon="6.46168">
        <ele>506.4</ele>
        <time>2021-11-26T12:01:58Z</time>
      </trkpt>
      <trkpt lat="43.56297" lon="6.46152">
        <ele>509.3</ele>
        <time>2021-11-26T12:02:18Z</time>
      </trkpt>
      <trkpt lat="43.5629" lon="6.46138">
        <ele>507.3</ele>
        <time>2021-11-26T12:02:34Z</time>
      </trkpt>
      <trkpt lat="43.56284" lon="6.46126">
        <ele>507.5</ele>
        <time>2021-11-26T12:02:49Z</time>
      </trkpt>
      <trkpt lat="43.56275" lon="6.46112">
        <ele>508.7</ele>
        <time>2021-11-26T12:03:08Z</time>
      </trkpt>
      <trkpt lat="43.56268" lon="6.46105">
        <ele>508.4</ele>
        <time>2021-11-26T12:03:21Z</time>
      </trkpt>
      <trkpt lat="43.5627" lon="6.46093">
        <ele>511.5</ele>
        <time>2021-11-26T12:03:38Z</time>
      </trkpt>
      <trkpt lat="43.56272" lon="6.46083">
        <ele>514.3</ele>
        <time>2021-11-26T12:03:59Z</time>
      </trkpt>
      <trkpt lat="43.5627" lon="6.4607">
        <ele>513.3</ele>
        <time>2021-11-26T12:04:16Z</time>
      </trkpt>
      <trkpt lat="43.5627" lon="6.46054">
        <ele>513</ele>
        <time>2021-11-26T12:04:32Z</time>
      </trkpt>
      <trkpt lat="43.56269" lon="6.46041">
        <ele>512.7</ele>
        <time>2021-11-26T12:04:52Z</time>
      </trkpt>
      <trkpt lat="43.56264" lon="6.46027">
        <ele>510.5</ele>
        <time>2021-11-26T12:05:12Z</time>
      </trkpt>
      <trkpt lat="43.56259" lon="6.46012">
        <ele>510.6</ele>
        <time>2021-11-26T12:05:30Z</time>
      </trkpt>
      <trkpt lat="43.56256" lon="6.45993">
        <ele>511.8</ele>
        <time>2021-11-26T12:05:49Z</time>
      </trkpt>
      <trkpt lat="43.56249" lon="6.45982">
        <ele>511</ele>
        <time>2021-11-26T12:06:03Z</time>
      </trkpt>
      <trkpt lat="43.5624" lon="6.45976">
        <ele>509</ele>
        <time>2021-11-26T12:06:18Z</time>
      </trkpt>
      <trkpt lat="43.56233" lon="6.45959">
        <ele>505.7</ele>
        <time>2021-11-26T12:06:29Z</time>
      </trkpt>
      <trkpt lat="43.56231" lon="6.45948">
        <ele>503.8</ele>
        <time>2021-11-26T12:06:39Z</time>
      </trkpt>
      <trkpt lat="43.56229" lon="6.45936">
        <ele>501.7</ele>
        <time>2021-11-26T12:06:51Z</time>
      </trkpt>
      <trkpt lat="43.56226" lon="6.45924">
        <ele>499.2</ele>
        <time>2021-11-26T12:07:04Z</time>
      </trkpt>
      <trkpt lat="43.56221" lon="6.45915">
        <ele>496.5</ele>
        <time>2021-11-26T12:07:20Z</time>
      </trkpt>
      <trkpt lat="43.56214" lon="6.45903">
        <ele>494.1</ele>
        <time>2021-11-26T12:07:39Z</time>
      </trkpt>
      <trkpt lat="43.5621" lon="6.45898">
        <ele>493.3</ele>
        <time>2021-11-26T12:08:00Z</time>
      </trkpt>
      <trkpt lat="43.56218" lon="6.4589">
        <ele>493</ele>
        <time>2021-11-26T12:08:46Z</time>
      </trkpt>
      <trkpt lat="43.56226" lon="6.45879">
        <ele>493.3</ele>
        <time>2021-11-26T12:08:57Z</time>
      </trkpt>
      <trkpt lat="43.5623" lon="6.45867">
        <ele>492.8</ele>
        <time>2021-11-26T12:09:05Z</time>
      </trkpt>
      <trkpt lat="43.56236" lon="6.45856">
        <ele>492.4</ele>
        <time>2021-11-26T12:09:14Z</time>
      </trkpt>
      <trkpt lat="43.56243" lon="6.45844">
        <ele>491.8</ele>
        <time>2021-11-26T12:09:25Z</time>
      </trkpt>
      <trkpt lat="43.5625" lon="6.45831">
        <ele>490.9</ele>
        <time>2021-11-26T12:09:35Z</time>
      </trkpt>
      <trkpt lat="43.56259" lon="6.45821">
        <ele>492.1</ele>
        <time>2021-11-26T12:09:44Z</time>
      </trkpt>
      <trkpt lat="43.56264" lon="6.4581">
        <ele>491.6</ele>
        <time>2021-11-26T12:09:53Z</time>
      </trkpt>
      <trkpt lat="43.56269" lon="6.45795">
        <ele>491</ele>
        <time>2021-11-26T12:10:03Z</time>
      </trkpt>
      <trkpt lat="43.56276" lon="6.45784">
        <ele>490.6</ele>
        <time>2021-11-26T12:10:13Z</time>
      </trkpt>
      <trkpt lat="43.56285" lon="6.45775">
        <ele>491.9</ele>
        <time>2021-11-26T12:10:22Z</time>
      </trkpt>
      <trkpt lat="43.56292" lon="6.45759">
        <ele>492.7</ele>
        <time>2021-11-26T12:10:31Z</time>
      </trkpt>
      <trkpt lat="43.56297" lon="6.45746">
        <ele>492.7</ele>
        <time>2021-11-26T12:10:40Z</time>
      </trkpt>
      <trkpt lat="43.56299" lon="6.45734">
        <ele>492.5</ele>
        <time>2021-11-26T12:10:50Z</time>
      </trkpt>
      <trkpt lat="43.56302" lon="6.4572">
        <ele>492.1</ele>
        <time>2021-11-26T12:11:00Z</time>
      </trkpt>
      <trkpt lat="43.56305" lon="6.45704">
        <ele>492.7</ele>
        <time>2021-11-26T12:11:11Z</time>
      </trkpt>
      <trkpt lat="43.5631" lon="6.45692">
        <ele>493.5</ele>
        <time>2021-11-26T12:11:22Z</time>
      </trkpt>
      <trkpt lat="43.56314" lon="6.45673">
        <ele>494.2</ele>
        <time>2021-11-26T12:11:33Z</time>
      </trkpt>
      <trkpt lat="43.56315" lon="6.45656">
        <ele>494.8</ele>
        <time>2021-11-26T12:11:45Z</time>
      </trkpt>
      <trkpt lat="43.56322" lon="6.45644">
        <ele>495.3</ele>
        <time>2021-11-26T12:11:54Z</time>
      </trkpt>
      <trkpt lat="43.56328" lon="6.45632">
        <ele>495.2</ele>
        <time>2021-11-26T12:12:11Z</time>
      </trkpt>
      <trkpt lat="43.56328" lon="6.45621">
        <ele>495.2</ele>
        <time>2021-11-26T12:12:28Z</time>
      </trkpt>
      <trkpt lat="43.56337" lon="6.45612">
        <ele>495.6</ele>
        <time>2021-11-26T12:12:40Z</time>
      </trkpt>
      <trkpt lat="43.56334" lon="6.45597">
        <ele>495.1</ele>
        <time>2021-11-26T12:12:59Z</time>
      </trkpt>
      <trkpt lat="43.56324" lon="6.45585">
        <ele>494.4</ele>
        <time>2021-11-26T12:13:17Z</time>
      </trkpt>
      <trkpt lat="43.56317" lon="6.45574">
        <ele>493.9</ele>
        <time>2021-11-26T12:13:26Z</time>
      </trkpt>
      <trkpt lat="43.5631" lon="6.45564">
        <ele>492.9</ele>
        <time>2021-11-26T12:13:37Z</time>
      </trkpt>
      <trkpt lat="43.56304" lon="6.4555">
        <ele>492.1</ele>
        <time>2021-11-26T12:13:50Z</time>
      </trkpt>
      <trkpt lat="43.56298" lon="6.4554">
        <ele>492.3</ele>
        <time>2021-11-26T12:14:01Z</time>
      </trkpt>
      <trkpt lat="43.56293" lon="6.45527">
        <ele>492</ele>
        <time>2021-11-26T12:14:12Z</time>
      </trkpt>
      <trkpt lat="43.5629" lon="6.45513">
        <ele>491.9</ele>
        <time>2021-11-26T12:14:27Z</time>
      </trkpt>
      <trkpt lat="43.56283" lon="6.45509">
        <ele>491.1</ele>
        <time>2021-11-26T12:14:44Z</time>
      </trkpt>
      <trkpt lat="43.56274" lon="6.45498">
        <ele>490.6</ele>
        <time>2021-11-26T12:14:58Z</time>
      </trkpt>
      <trkpt lat="43.56267" lon="6.45486">
        <ele>491</ele>
        <time>2021-11-26T12:15:11Z</time>
      </trkpt>
      <trkpt lat="43.56256" lon="6.4548">
        <ele>492.1</ele>
        <time>2021-11-26T12:15:26Z</time>
      </trkpt>
      <trkpt lat="43.56247" lon="6.4548">
        <ele>493.6</ele>
        <time>2021-11-26T12:15:42Z</time>
      </trkpt>
      <trkpt lat="43.5624" lon="6.45466">
        <ele>493.1</ele>
        <time>2021-11-26T12:15:57Z</time>
      </trkpt>
      <trkpt lat="43.56234" lon="6.45449">
        <ele>492.4</ele>
        <time>2021-11-26T12:16:10Z</time>
      </trkpt>
      <trkpt lat="43.56227" lon="6.45438">
        <ele>492.2</ele>
        <time>2021-11-26T12:16:20Z</time>
      </trkpt>
      <trkpt lat="43.5622" lon="6.45442">
        <ele>493.8</ele>
        <time>2021-11-26T12:16:32Z</time>
      </trkpt>
      <trkpt lat="43.56213" lon="6.45449">
        <ele>495.2</ele>
        <time>2021-11-26T12:16:45Z</time>
      </trkpt>
      <trkpt lat="43.56206" lon="6.4546">
        <ele>497.1</ele>
        <time>2021-11-26T12:17:01Z</time>
      </trkpt>
      <trkpt lat="43.56197" lon="6.45464">
        <ele>498.5</ele>
        <time>2021-11-26T12:17:15Z</time>
      </trkpt>
      <trkpt lat="43.56185" lon="6.4546">
        <ele>498.5</ele>
        <time>2021-11-26T12:17:26Z</time>
      </trkpt>
      <trkpt lat="43.56177" lon="6.45452">
        <ele>497.3</ele>
        <time>2021-11-26T12:17:37Z</time>
      </trkpt>
      <trkpt lat="43.56166" lon="6.45449">
        <ele>496.7</ele>
        <time>2021-11-26T12:17:49Z</time>
      </trkpt>
      <trkpt lat="43.56157" lon="6.45452">
        <ele>497.2</ele>
        <time>2021-11-26T12:18:00Z</time>
      </trkpt>
      <trkpt lat="43.56151" lon="6.45463">
        <ele>498.9</ele>
        <time>2021-11-26T12:18:15Z</time>
      </trkpt>
      <trkpt lat="43.56148" lon="6.45478">
        <ele>501.2</ele>
        <time>2021-11-26T12:18:30Z</time>
      </trkpt>
      <trkpt lat="43.56138" lon="6.45484">
        <ele>502.2</ele>
        <time>2021-11-26T12:18:43Z</time>
      </trkpt>
      <trkpt lat="43.56131" lon="6.45494">
        <ele>503.8</ele>
        <time>2021-11-26T12:18:58Z</time>
      </trkpt>
      <trkpt lat="43.56121" lon="6.455">
        <ele>504.3</ele>
        <time>2021-11-26T12:19:09Z</time>
      </trkpt>
      <trkpt lat="43.56111" lon="6.45503">
        <ele>504.5</ele>
        <time>2021-11-26T12:19:19Z</time>
      </trkpt>
      <trkpt lat="43.56104" lon="6.45511">
        <ele>506.2</ele>
        <time>2021-11-26T12:19:31Z</time>
      </trkpt>
      <trkpt lat="43.561" lon="6.45526">
        <ele>509.3</ele>
        <time>2021-11-26T12:19:52Z</time>
      </trkpt>
      <trkpt lat="43.56093" lon="6.45538">
        <ele>510.7</ele>
        <time>2021-11-26T12:20:07Z</time>
      </trkpt>
      <trkpt lat="43.5609" lon="6.4555">
        <ele>512.2</ele>
        <time>2021-11-26T12:20:22Z</time>
      </trkpt>
      <trkpt lat="43.56084" lon="6.45561">
        <ele>513.6</ele>
        <time>2021-11-26T12:20:35Z</time>
      </trkpt>
      <trkpt lat="43.56078" lon="6.45568">
        <ele>514.1</ele>
        <time>2021-11-26T12:20:51Z</time>
      </trkpt>
      <trkpt lat="43.56068" lon="6.45567">
        <ele>513.3</ele>
        <time>2021-11-26T12:21:10Z</time>
      </trkpt>
      <trkpt lat="43.56057" lon="6.45566">
        <ele>512.6</ele>
        <time>2021-11-26T12:21:20Z</time>
      </trkpt>
      <trkpt lat="43.56049" lon="6.4557">
        <ele>512.6</ele>
        <time>2021-11-26T12:21:33Z</time>
      </trkpt>
      <trkpt lat="43.5604" lon="6.4558">
        <ele>513.4</ele>
        <time>2021-11-26T12:21:46Z</time>
      </trkpt>
      <trkpt lat="43.56031" lon="6.4559">
        <ele>514.4</ele>
        <time>2021-11-26T12:22:00Z</time>
      </trkpt>
      <trkpt lat="43.56028" lon="6.45603">
        <ele>516.5</ele>
        <time>2021-11-26T12:22:17Z</time>
      </trkpt>
      <trkpt lat="43.56018" lon="6.45611">
        <ele>517.3</ele>
        <time>2021-11-26T12:22:31Z</time>
      </trkpt>
      <trkpt lat="43.56008" lon="6.45614">
        <ele>517</ele>
        <time>2021-11-26T12:22:44Z</time>
      </trkpt>
      <trkpt lat="43.55998" lon="6.45621">
        <ele>517.4</ele>
        <time>2021-11-26T12:22:55Z</time>
      </trkpt>
      <trkpt lat="43.55988" lon="6.45625">
        <ele>517.4</ele>
        <time>2021-11-26T12:23:07Z</time>
      </trkpt>
      <trkpt lat="43.5598" lon="6.45624">
        <ele>516.8</ele>
        <time>2021-11-26T12:23:16Z</time>
      </trkpt>
      <trkpt lat="43.55975" lon="6.45633">
        <ele>517.6</ele>
        <time>2021-11-26T12:23:28Z</time>
      </trkpt>
      <trkpt lat="43.55972" lon="6.45643">
        <ele>518.7</ele>
        <time>2021-11-26T12:23:44Z</time>
      </trkpt>
      <trkpt lat="43.55963" lon="6.45644">
        <ele>517.8</ele>
        <time>2021-11-26T12:24:11Z</time>
      </trkpt>
      <trkpt lat="43.55953" lon="6.45643">
        <ele>516.5</ele>
        <time>2021-11-26T12:24:21Z</time>
      </trkpt>
      <trkpt lat="43.55945" lon="6.45637">
        <ele>514.9</ele>
        <time>2021-11-26T12:24:32Z</time>
      </trkpt>
      <trkpt lat="43.55935" lon="6.45631">
        <ele>514</ele>
        <time>2021-11-26T12:24:50Z</time>
      </trkpt>
      <trkpt lat="43.55925" lon="6.45621">
        <ele>512.1</ele>
        <time>2021-11-26T12:25:04Z</time>
      </trkpt>
      <trkpt lat="43.55914" lon="6.45619">
        <ele>510.8</ele>
        <time>2021-11-26T12:25:15Z</time>
      </trkpt>
      <trkpt lat="43.55904" lon="6.45623">
        <ele>509.9</ele>
        <time>2021-11-26T12:25:26Z</time>
      </trkpt>
      <trkpt lat="43.55893" lon="6.45625">
        <ele>508.7</ele>
        <time>2021-11-26T12:25:36Z</time>
      </trkpt>
      <trkpt lat="43.55884" lon="6.45626">
        <ele>507.6</ele>
        <time>2021-11-26T12:25:47Z</time>
      </trkpt>
      <trkpt lat="43.55872" lon="6.45626">
        <ele>506.6</ele>
        <time>2021-11-26T12:25:58Z</time>
      </trkpt>
      <trkpt lat="43.55863" lon="6.45636">
        <ele>506.9</ele>
        <time>2021-11-26T12:26:09Z</time>
      </trkpt>
      <trkpt lat="43.55854" lon="6.45643">
        <ele>506.7</ele>
        <time>2021-11-26T12:26:19Z</time>
      </trkpt>
      <trkpt lat="43.55847" lon="6.45652">
        <ele>506.9</ele>
        <time>2021-11-26T12:26:30Z</time>
      </trkpt>
      <trkpt lat="43.55849" lon="6.45668">
        <ele>508.8</ele>
        <time>2021-11-26T12:26:43Z</time>
      </trkpt>
      <trkpt lat="43.55844" lon="6.45678">
        <ele>509.2</ele>
        <time>2021-11-26T12:26:54Z</time>
      </trkpt>
      <trkpt lat="43.55836" lon="6.45683">
        <ele>509</ele>
        <time>2021-11-26T12:27:03Z</time>
      </trkpt>
      <trkpt lat="43.55828" lon="6.45691">
        <ele>508.6</ele>
        <time>2021-11-26T12:27:12Z</time>
      </trkpt>
      <trkpt lat="43.55821" lon="6.45701">
        <ele>508.1</ele>
        <time>2021-11-26T12:27:22Z</time>
      </trkpt>
      <trkpt lat="43.5582" lon="6.45714">
        <ele>508.7</ele>
        <time>2021-11-26T12:27:31Z</time>
      </trkpt>
      <trkpt lat="43.55828" lon="6.45723">
        <ele>510.9</ele>
        <time>2021-11-26T12:27:45Z</time>
      </trkpt>
      <trkpt lat="43.55829" lon="6.45739">
        <ele>512.3</ele>
        <time>2021-11-26T12:27:59Z</time>
      </trkpt>
      <trkpt lat="43.55835" lon="6.45752">
        <ele>514.4</ele>
        <time>2021-11-26T12:28:14Z</time>
      </trkpt>
      <trkpt lat="43.55835" lon="6.45766">
        <ele>515.4</ele>
        <time>2021-11-26T12:28:29Z</time>
      </trkpt>
      <trkpt lat="43.55829" lon="6.4578">
        <ele>515.7</ele>
        <time>2021-11-26T12:28:45Z</time>
      </trkpt>
      <trkpt lat="43.55826" lon="6.45795">
        <ele>517.2</ele>
        <time>2021-11-26T12:29:03Z</time>
      </trkpt>
      <trkpt lat="43.55818" lon="6.45808">
        <ele>517.1</ele>
        <time>2021-11-26T12:29:19Z</time>
      </trkpt>
      <trkpt lat="43.55808" lon="6.45814">
        <ele>515.6</ele>
        <time>2021-11-26T12:29:31Z</time>
      </trkpt>
      <trkpt lat="43.55797" lon="6.45815">
        <ele>513.5</ele>
        <time>2021-11-26T12:29:43Z</time>
      </trkpt>
      <trkpt lat="43.55793" lon="6.45827">
        <ele>513.9</ele>
        <time>2021-11-26T12:29:56Z</time>
      </trkpt>
      <trkpt lat="43.55789" lon="6.45841">
        <ele>515.1</ele>
        <time>2021-11-26T12:30:09Z</time>
      </trkpt>
      <trkpt lat="43.5578" lon="6.4585">
        <ele>513.9</ele>
        <time>2021-11-26T12:30:21Z</time>
      </trkpt>
      <trkpt lat="43.55769" lon="6.4585">
        <ele>511</ele>
        <time>2021-11-26T12:30:33Z</time>
      </trkpt>
      <trkpt lat="43.55763" lon="6.45858">
        <ele>510.4</ele>
        <time>2021-11-26T12:30:44Z</time>
      </trkpt>
      <trkpt lat="43.55758" lon="6.45868">
        <ele>510</ele>
        <time>2021-11-26T12:30:56Z</time>
      </trkpt>
      <trkpt lat="43.55758" lon="6.45878">
        <ele>511.4</ele>
        <time>2021-11-26T12:31:08Z</time>
      </trkpt>
      <trkpt lat="43.5575" lon="6.45889">
        <ele>510</ele>
        <time>2021-11-26T12:31:20Z</time>
      </trkpt>
      <trkpt lat="43.55743" lon="6.45899">
        <ele>509</ele>
        <time>2021-11-26T12:31:32Z</time>
      </trkpt>
      <trkpt lat="43.55738" lon="6.45908">
        <ele>507.9</ele>
        <time>2021-11-26T12:31:46Z</time>
      </trkpt>
      <trkpt lat="43.55739" lon="6.4592">
        <ele>509.2</ele>
        <time>2021-11-26T12:32:07Z</time>
      </trkpt>
      <trkpt lat="43.55741" lon="6.45934">
        <ele>512</ele>
        <time>2021-11-26T12:32:25Z</time>
      </trkpt>
      <trkpt lat="43.55739" lon="6.45949">
        <ele>513.2</ele>
        <time>2021-11-26T12:32:43Z</time>
      </trkpt>
      <trkpt lat="43.55738" lon="6.45963">
        <ele>516</ele>
        <time>2021-11-26T12:33:00Z</time>
      </trkpt>
      <trkpt lat="43.55735" lon="6.45977">
        <ele>517.9</ele>
        <time>2021-11-26T12:33:19Z</time>
      </trkpt>
      <trkpt lat="43.55734" lon="6.45986">
        <ele>520</ele>
        <time>2021-11-26T12:33:54Z</time>
      </trkpt>
      <trkpt lat="43.55729" lon="6.45982">
        <ele>516.9</ele>
        <time>2021-11-26T12:36:06Z</time>
      </trkpt>
      <trkpt lat="43.55726" lon="6.45983">
        <ele>516</ele>
        <time>2021-11-26T12:37:01Z</time>
      </trkpt>
      <trkpt lat="43.55719" lon="6.45992">
        <ele>516.8</ele>
        <time>2021-11-26T12:37:31Z</time>
      </trkpt>
      <trkpt lat="43.55711" lon="6.46">
        <ele>517.7</ele>
        <time>2021-11-26T12:37:44Z</time>
      </trkpt>
      <trkpt lat="43.55701" lon="6.46009">
        <ele>518.2</ele>
        <time>2021-11-26T12:38:00Z</time>
      </trkpt>
      <trkpt lat="43.55703" lon="6.46009">
        <ele>518.8</ele>
        <time>2021-11-26T12:38:21Z</time>
      </trkpt>
      <trkpt lat="43.55694" lon="6.46017">
        <ele>519.8</ele>
        <time>2021-11-26T12:38:34Z</time>
      </trkpt>
      <trkpt lat="43.55692" lon="6.4603">
        <ele>523.8</ele>
        <time>2021-11-26T12:38:50Z</time>
      </trkpt>
      <trkpt lat="43.55697" lon="6.46038">
        <ele>525.9</ele>
        <time>2021-11-26T12:39:09Z</time>
      </trkpt>
      <trkpt lat="43.55699" lon="6.46045">
        <ele>527.2</ele>
        <time>2021-11-26T12:39:57Z</time>
      </trkpt>
      <trkpt lat="43.55697" lon="6.46046">
        <ele>527</ele>
        <time>2021-11-26T12:40:56Z</time>
      </trkpt>
      <trkpt lat="43.55704" lon="6.4604">
        <ele>527.4</ele>
        <time>2021-11-26T12:41:11Z</time>
      </trkpt>
      <trkpt lat="43.55713" lon="6.46034">
        <ele>528.2</ele>
        <time>2021-11-26T12:41:23Z</time>
      </trkpt>
      <trkpt lat="43.55722" lon="6.46027">
        <ele>528.8</ele>
        <time>2021-11-26T12:41:32Z</time>
      </trkpt>
      <trkpt lat="43.55732" lon="6.4602">
        <ele>528.3</ele>
        <time>2021-11-26T12:41:42Z</time>
      </trkpt>
      <trkpt lat="43.55739" lon="6.46013">
        <ele>528.2</ele>
        <time>2021-11-26T12:41:51Z</time>
      </trkpt>
      <trkpt lat="43.55747" lon="6.46015">
        <ele>529.9</ele>
        <time>2021-11-26T12:42:14Z</time>
      </trkpt>
      <trkpt lat="43.55753" lon="6.46008">
        <ele>530.3</ele>
        <time>2021-11-26T12:42:23Z</time>
      </trkpt>
      <trkpt lat="43.55763" lon="6.46004">
        <ele>531.3</ele>
        <time>2021-11-26T12:42:32Z</time>
      </trkpt>
      <trkpt lat="43.55773" lon="6.46001">
        <ele>532.4</ele>
        <time>2021-11-26T12:42:43Z</time>
      </trkpt>
      <trkpt lat="43.55782" lon="6.45989">
        <ele>532.1</ele>
        <time>2021-11-26T12:42:55Z</time>
      </trkpt>
      <trkpt lat="43.5579" lon="6.45982">
        <ele>532.4</ele>
        <time>2021-11-26T12:43:05Z</time>
      </trkpt>
      <trkpt lat="43.55799" lon="6.45974">
        <ele>533.1</ele>
        <time>2021-11-26T12:43:15Z</time>
      </trkpt>
      <trkpt lat="43.55806" lon="6.45965">
        <ele>533.3</ele>
        <time>2021-11-26T12:43:25Z</time>
      </trkpt>
      <trkpt lat="43.55813" lon="6.45956">
        <ele>533.5</ele>
        <time>2021-11-26T12:43:35Z</time>
      </trkpt>
      <trkpt lat="43.55823" lon="6.45951">
        <ele>534.4</ele>
        <time>2021-11-26T12:43:47Z</time>
      </trkpt>
      <trkpt lat="43.55833" lon="6.45945">
        <ele>535</ele>
        <time>2021-11-26T12:43:58Z</time>
      </trkpt>
      <trkpt lat="43.55841" lon="6.45936">
        <ele>535.6</ele>
        <time>2021-11-26T12:44:08Z</time>
      </trkpt>
      <trkpt lat="43.55849" lon="6.45928">
        <ele>536</ele>
        <time>2021-11-26T12:44:19Z</time>
      </trkpt>
      <trkpt lat="43.55856" lon="6.45917">
        <ele>535.5</ele>
        <time>2021-11-26T12:44:31Z</time>
      </trkpt>
      <trkpt lat="43.55867" lon="6.45905">
        <ele>536</ele>
        <time>2021-11-26T12:44:42Z</time>
      </trkpt>
      <trkpt lat="43.55875" lon="6.45895">
        <ele>536.4</ele>
        <time>2021-11-26T12:44:51Z</time>
      </trkpt>
      <trkpt lat="43.55883" lon="6.45885">
        <ele>536.8</ele>
        <time>2021-11-26T12:45:01Z</time>
      </trkpt>
      <trkpt lat="43.55891" lon="6.45877">
        <ele>536.9</ele>
        <time>2021-11-26T12:45:13Z</time>
      </trkpt>
      <trkpt lat="43.55901" lon="6.45867">
        <ele>536.9</ele>
        <time>2021-11-26T12:45:25Z</time>
      </trkpt>
      <trkpt lat="43.55908" lon="6.45854">
        <ele>536.5</ele>
        <time>2021-11-26T12:45:37Z</time>
      </trkpt>
      <trkpt lat="43.55915" lon="6.45843">
        <ele>536.5</ele>
        <time>2021-11-26T12:45:47Z</time>
      </trkpt>
      <trkpt lat="43.5592" lon="6.45825">
        <ele>535.6</ele>
        <time>2021-11-26T12:45:57Z</time>
      </trkpt>
      <trkpt lat="43.55922" lon="6.45811">
        <ele>534.6</ele>
        <time>2021-11-26T12:46:07Z</time>
      </trkpt>
      <trkpt lat="43.55928" lon="6.45801">
        <ele>534</ele>
        <time>2021-11-26T12:46:17Z</time>
      </trkpt>
      <trkpt lat="43.55936" lon="6.45793">
        <ele>533.6</ele>
        <time>2021-11-26T12:46:27Z</time>
      </trkpt>
      <trkpt lat="43.55948" lon="6.45782">
        <ele>533.4</ele>
        <time>2021-11-26T12:46:38Z</time>
      </trkpt>
      <trkpt lat="43.55957" lon="6.45774">
        <ele>533.2</ele>
        <time>2021-11-26T12:46:49Z</time>
      </trkpt>
      <trkpt lat="43.55968" lon="6.45778">
        <ele>533.9</ele>
        <time>2021-11-26T12:47:02Z</time>
      </trkpt>
      <trkpt lat="43.55981" lon="6.45793">
        <ele>535.4</ele>
        <time>2021-11-26T12:47:14Z</time>
      </trkpt>
      <trkpt lat="43.5599" lon="6.45794">
        <ele>535.8</ele>
        <time>2021-11-26T12:47:28Z</time>
      </trkpt>
      <trkpt lat="43.55999" lon="6.45802">
        <ele>536.7</ele>
        <time>2021-11-26T12:47:41Z</time>
      </trkpt>
      <trkpt lat="43.56002" lon="6.4581">
        <ele>537.5</ele>
        <time>2021-11-26T12:48:04Z</time>
      </trkpt>
      <trkpt lat="43.55996" lon="6.45823">
        <ele>538.8</ele>
        <time>2021-11-26T12:48:17Z</time>
      </trkpt>
      <trkpt lat="43.55991" lon="6.45836">
        <ele>540</ele>
        <time>2021-11-26T12:48:27Z</time>
      </trkpt>
      <trkpt lat="43.55989" lon="6.4585">
        <ele>541.7</ele>
        <time>2021-11-26T12:48:41Z</time>
      </trkpt>
      <trkpt lat="43.55987" lon="6.45864">
        <ele>543.3</ele>
        <time>2021-11-26T12:48:55Z</time>
      </trkpt>
      <trkpt lat="43.55988" lon="6.45876">
        <ele>544.7</ele>
        <time>2021-11-26T12:49:14Z</time>
      </trkpt>
      <trkpt lat="43.55981" lon="6.45885">
        <ele>545.5</ele>
        <time>2021-11-26T12:49:51Z</time>
      </trkpt>
      <trkpt lat="43.55979" lon="6.459">
        <ele>546.6</ele>
        <time>2021-11-26T12:50:01Z</time>
      </trkpt>
      <trkpt lat="43.55975" lon="6.45913">
        <ele>547.6</ele>
        <time>2021-11-26T12:50:12Z</time>
      </trkpt>
      <trkpt lat="43.55968" lon="6.45925">
        <ele>548.2</ele>
        <time>2021-11-26T12:50:22Z</time>
      </trkpt>
      <trkpt lat="43.5596" lon="6.45937">
        <ele>548.9</ele>
        <time>2021-11-26T12:50:34Z</time>
      </trkpt>
      <trkpt lat="43.55955" lon="6.45944">
        <ele>549.6</ele>
        <time>2021-11-26T12:51:12Z</time>
      </trkpt>
      <trkpt lat="43.55957" lon="6.45949">
        <ele>549.6</ele>
        <time>2021-11-26T12:51:51Z</time>
      </trkpt>
      <trkpt lat="43.55951" lon="6.45961">
        <ele>550.1</ele>
        <time>2021-11-26T12:52:02Z</time>
      </trkpt>
      <trkpt lat="43.55942" lon="6.45969">
        <ele>550.9</ele>
        <time>2021-11-26T12:52:12Z</time>
      </trkpt>
      <trkpt lat="43.55935" lon="6.4598">
        <ele>550.9</ele>
        <time>2021-11-26T12:52:22Z</time>
      </trkpt>
      <trkpt lat="43.55929" lon="6.45992">
        <ele>551.1</ele>
        <time>2021-11-26T12:52:31Z</time>
      </trkpt>
      <trkpt lat="43.55926" lon="6.46006">
        <ele>551.1</ele>
        <time>2021-11-26T12:52:39Z</time>
      </trkpt>
      <trkpt lat="43.55924" lon="6.4602">
        <ele>550.7</ele>
        <time>2021-11-26T12:52:48Z</time>
      </trkpt>
      <trkpt lat="43.55921" lon="6.46033">
        <ele>550.5</ele>
        <time>2021-11-26T12:53:00Z</time>
      </trkpt>
      <trkpt lat="43.55915" lon="6.46045">
        <ele>550.4</ele>
        <time>2021-11-26T12:53:08Z</time>
      </trkpt>
      <trkpt lat="43.55909" lon="6.46055">
        <ele>550.3</ele>
        <time>2021-11-26T12:53:16Z</time>
      </trkpt>
      <trkpt lat="43.55903" lon="6.46067">
        <ele>549.7</ele>
        <time>2021-11-26T12:53:24Z</time>
      </trkpt>
      <trkpt lat="43.55897" lon="6.46078">
        <ele>549.1</ele>
        <time>2021-11-26T12:53:32Z</time>
      </trkpt>
      <trkpt lat="43.55891" lon="6.46089">
        <ele>548.7</ele>
        <time>2021-11-26T12:53:43Z</time>
      </trkpt>
      <trkpt lat="43.55892" lon="6.46101">
        <ele>548.1</ele>
        <time>2021-11-26T12:53:57Z</time>
      </trkpt>
      <trkpt lat="43.55895" lon="6.46116">
        <ele>547</ele>
        <time>2021-11-26T12:54:07Z</time>
      </trkpt>
      <trkpt lat="43.55899" lon="6.4613">
        <ele>545.6</ele>
        <time>2021-11-26T12:54:18Z</time>
      </trkpt>
      <trkpt lat="43.55902" lon="6.46144">
        <ele>544</ele>
        <time>2021-11-26T12:54:27Z</time>
      </trkpt>
      <trkpt lat="43.55899" lon="6.46158">
        <ele>542.8</ele>
        <time>2021-11-26T12:54:39Z</time>
      </trkpt>
      <trkpt lat="43.55893" lon="6.46173">
        <ele>542</ele>
        <time>2021-11-26T12:54:52Z</time>
      </trkpt>
      <trkpt lat="43.55887" lon="6.46187">
        <ele>541.7</ele>
        <time>2021-11-26T12:55:02Z</time>
      </trkpt>
      <trkpt lat="43.55881" lon="6.46201">
        <ele>541.7</ele>
        <time>2021-11-26T12:55:14Z</time>
      </trkpt>
      <trkpt lat="43.55873" lon="6.46213">
        <ele>541.6</ele>
        <time>2021-11-26T12:55:24Z</time>
      </trkpt>
      <trkpt lat="43.55868" lon="6.46226">
        <ele>540.9</ele>
        <time>2021-11-26T12:55:45Z</time>
      </trkpt>
      <trkpt lat="43.5586" lon="6.46232">
        <ele>541.4</ele>
        <time>2021-11-26T12:55:54Z</time>
      </trkpt>
      <trkpt lat="43.55853" lon="6.46241">
        <ele>541.3</ele>
        <time>2021-11-26T12:56:04Z</time>
      </trkpt>
      <trkpt lat="43.55844" lon="6.46253">
        <ele>540.9</ele>
        <time>2021-11-26T12:56:14Z</time>
      </trkpt>
      <trkpt lat="43.55836" lon="6.46256">
        <ele>541.2</ele>
        <time>2021-11-26T12:56:25Z</time>
      </trkpt>
      <trkpt lat="43.55827" lon="6.46244">
        <ele>543.1</ele>
        <time>2021-11-26T12:56:39Z</time>
      </trkpt>
      <trkpt lat="43.55815" lon="6.46241">
        <ele>544.3</ele>
        <time>2021-11-26T12:56:51Z</time>
      </trkpt>
      <trkpt lat="43.55804" lon="6.46252">
        <ele>543.9</ele>
        <time>2021-11-26T12:57:03Z</time>
      </trkpt>
      <trkpt lat="43.55794" lon="6.46259">
        <ele>543.8</ele>
        <time>2021-11-26T12:57:14Z</time>
      </trkpt>
      <trkpt lat="43.55785" lon="6.46263">
        <ele>544.1</ele>
        <time>2021-11-26T12:57:33Z</time>
      </trkpt>
      <trkpt lat="43.55775" lon="6.46269">
        <ele>544.1</ele>
        <time>2021-11-26T12:57:43Z</time>
      </trkpt>
      <trkpt lat="43.55766" lon="6.46276">
        <ele>543.6</ele>
        <time>2021-11-26T12:57:52Z</time>
      </trkpt>
      <trkpt lat="43.55757" lon="6.46277">
        <ele>543.8</ele>
        <time>2021-11-26T12:58:01Z</time>
      </trkpt>
      <trkpt lat="43.55755" lon="6.46279">
        <ele>543.6</ele>
        <time>2021-11-26T13:01:10Z</time>
      </trkpt>
      <trkpt lat="43.55748" lon="6.46269">
        <ele>545.4</ele>
        <time>2021-11-26T13:01:23Z</time>
      </trkpt>
      <trkpt lat="43.55736" lon="6.46264">
        <ele>546.2</ele>
        <time>2021-11-26T13:01:35Z</time>
      </trkpt>
      <trkpt lat="43.55728" lon="6.46254">
        <ele>547</ele>
        <time>2021-11-26T13:01:48Z</time>
      </trkpt>
      <trkpt lat="43.55719" lon="6.46251">
        <ele>546.4</ele>
        <time>2021-11-26T13:02:00Z</time>
      </trkpt>
      <trkpt lat="43.5571" lon="6.46254">
        <ele>545.2</ele>
        <time>2021-11-26T13:02:30Z</time>
      </trkpt>
      <trkpt lat="43.55701" lon="6.46252">
        <ele>543.9</ele>
        <time>2021-11-26T13:02:40Z</time>
      </trkpt>
      <trkpt lat="43.55691" lon="6.46252">
        <ele>542.4</ele>
        <time>2021-11-26T13:02:50Z</time>
      </trkpt>
      <trkpt lat="43.55681" lon="6.46253">
        <ele>540.6</ele>
        <time>2021-11-26T13:03:00Z</time>
      </trkpt>
      <trkpt lat="43.55671" lon="6.46253">
        <ele>538.8</ele>
        <time>2021-11-26T13:03:09Z</time>
      </trkpt>
      <trkpt lat="43.5566" lon="6.46253">
        <ele>536.7</ele>
        <time>2021-11-26T13:03:19Z</time>
      </trkpt>
      <trkpt lat="43.55656" lon="6.46254">
        <ele>536</ele>
        <time>2021-11-26T13:05:45Z</time>
      </trkpt>
      <trkpt lat="43.55642" lon="6.46253">
        <ele>533.6</ele>
        <time>2021-11-26T13:06:07Z</time>
      </trkpt>
      <trkpt lat="43.55636" lon="6.46256">
        <ele>532.2</ele>
        <time>2021-11-26T13:06:15Z</time>
      </trkpt>
      <trkpt lat="43.55629" lon="6.46263">
        <ele>530.2</ele>
        <time>2021-11-26T13:06:26Z</time>
      </trkpt>
      <trkpt lat="43.5563" lon="6.4629">
        <ele>530.6</ele>
        <time>2021-11-26T13:06:35Z</time>
      </trkpt>
      <trkpt lat="43.55631" lon="6.46306">
        <ele>530.7</ele>
      </trkpt>
      <trkpt lat="43.5563" lon="6.46322">
        <ele>529.7</ele>
        <time>2021-11-26T13:06:44Z</time>
      </trkpt>
      <trkpt lat="43.55631" lon="6.46335">
        <ele>529.2</ele>
        <time>2021-11-26T13:06:54Z</time>
      </trkpt>
      <trkpt lat="43.55629" lon="6.46353">
        <ele>527.4</ele>
        <time>2021-11-26T13:07:02Z</time>
      </trkpt>
      <trkpt lat="43.55625" lon="6.46371">
        <ele>524.8</ele>
      </trkpt>
      <trkpt lat="43.55629" lon="6.46389">
        <ele>523.4</ele>
        <time>2021-11-26T13:07:10Z</time>
      </trkpt>
      <trkpt lat="43.55632" lon="6.46404">
        <ele>520.9</ele>
        <time>2021-11-26T13:07:18Z</time>
      </trkpt>
      <trkpt lat="43.55631" lon="6.46429">
        <ele>515.7</ele>
      </trkpt>
      <trkpt lat="43.55636" lon="6.46447">
        <ele>514</ele>
        <time>2021-11-26T13:07:26Z</time>
      </trkpt>
      <trkpt lat="43.55641" lon="6.46459">
        <ele>513.6</ele>
        <time>2021-11-26T13:07:34Z</time>
      </trkpt>
      <trkpt lat="43.55649" lon="6.46473">
        <ele>513</ele>
        <time>2021-11-26T13:07:42Z</time>
      </trkpt>
      <trkpt lat="43.55657" lon="6.4648">
        <ele>513.1</ele>
        <time>2021-11-26T13:07:51Z</time>
      </trkpt>
      <trkpt lat="43.55661" lon="6.46486">
        <ele>513</ele>
        <time>2021-11-26T13:08:00Z</time>
      </trkpt>
      <trkpt lat="43.55665" lon="6.46495">
        <ele>512.3</ele>
        <time>2021-11-26T13:08:08Z</time>
      </trkpt>
      <trkpt lat="43.55672" lon="6.46511">
        <ele>511</ele>
        <time>2021-11-26T13:08:16Z</time>
      </trkpt>
      <trkpt lat="43.55676" lon="6.46522">
        <ele>510</ele>
        <time>2021-11-26T13:08:24Z</time>
      </trkpt>
      <trkpt lat="43.5568" lon="6.4653">
        <ele>509.2</ele>
        <time>2021-11-26T13:08:33Z</time>
      </trkpt>
      <trkpt lat="43.55682" lon="6.46539">
        <ele>508.3</ele>
      </trkpt>
      <trkpt lat="43.55682" lon="6.4655">
        <ele>507.1</ele>
        <time>2021-11-26T13:08:42Z</time>
      </trkpt>
      <trkpt lat="43.55684" lon="6.4656">
        <ele>506.5</ele>
        <time>2021-11-26T13:08:51Z</time>
      </trkpt>
      <trkpt lat="43.55696" lon="6.46579">
        <ele>506.3</ele>
        <time>2021-11-26T13:10:20Z</time>
      </trkpt>
    </trkseg>
  </trk>
</gpx>